<?xml version="1.0" encoding="UTF-8" standalone="no" ?>
<gpx xmlns="http://www.topografix.com/GPX/1/1" xmlns:xsi="http://www.w3.org/2001/XMLSchema-instance" xsi:schemaLocation="http://www.topografix.com/GPX/1/1 http://www.topografix.com/GPX/1/1/gpx.xsd" version="1.1" creator="VisuGPX - https://www.visugpx.com">
  <metadata>
    <name>GTR_2022</name>
  </metadata>
  <trk>
    <name><![CDATA[GTR_2022]]></name>
    <trkseg>
      <trkpt lat="45.93744" lon="4.46656">
        <ele>598</ele>
        <time>2021-11-19T15:14:17Z</time>
      </trkpt>
      <trkpt lat="45.93717" lon="4.46689">
        <ele>594</ele>
        <time>2021-11-19T15:14:26Z</time>
      </trkpt>
      <trkpt lat="45.93716" lon="4.46697">
        <ele>593</ele>
        <time>2021-11-19T15:14:27Z</time>
      </trkpt>
      <trkpt lat="45.93729" lon="4.46682">
        <ele>595</ele>
        <time>2021-11-19T15:14:31Z</time>
      </trkpt>
      <trkpt lat="45.93742" lon="4.46674">
        <ele>597</ele>
        <time>2021-11-19T15:14:34Z</time>
      </trkpt>
      <trkpt lat="45.93753" lon="4.4668">
        <ele>597</ele>
        <time>2021-11-19T15:14:37Z</time>
      </trkpt>
      <trkpt lat="45.9378" lon="4.46749">
        <ele>593</ele>
        <time>2021-11-19T15:14:50Z</time>
      </trkpt>
      <trkpt lat="45.93793" lon="4.46764">
        <ele>593</ele>
        <time>2021-11-19T15:14:54Z</time>
      </trkpt>
      <trkpt lat="45.93816" lon="4.46776">
        <ele>594</ele>
        <time>2021-11-19T15:14:59Z</time>
      </trkpt>
      <trkpt lat="45.93841" lon="4.46777">
        <ele>596</ele>
        <time>2021-11-19T15:15:05Z</time>
      </trkpt>
      <trkpt lat="45.93866" lon="4.46768">
        <ele>600</ele>
        <time>2021-11-19T15:15:11Z</time>
      </trkpt>
      <trkpt lat="45.93885" lon="4.46766">
        <ele>601</ele>
        <time>2021-11-19T15:15:16Z</time>
      </trkpt>
      <trkpt lat="45.93911" lon="4.46772">
        <ele>602</ele>
        <time>2021-11-19T15:15:22Z</time>
      </trkpt>
      <trkpt lat="45.9394" lon="4.46788">
        <ele>598</ele>
        <time>2021-11-19T15:15:29Z</time>
      </trkpt>
      <trkpt lat="45.9399" lon="4.46839">
        <ele>590</ele>
        <time>2021-11-19T15:15:43Z</time>
      </trkpt>
      <trkpt lat="45.94015" lon="4.46845">
        <ele>587</ele>
        <time>2021-11-19T15:15:49Z</time>
      </trkpt>
      <trkpt lat="45.94045" lon="4.46819">
        <ele>585</ele>
        <time>2021-11-19T15:15:57Z</time>
      </trkpt>
      <trkpt lat="45.94122" lon="4.46798">
        <ele>579</ele>
        <time>2021-11-19T15:16:16Z</time>
      </trkpt>
      <trkpt lat="45.94168" lon="4.46813">
        <ele>573</ele>
        <time>2021-11-19T15:16:27Z</time>
      </trkpt>
      <trkpt lat="45.94183" lon="4.46823">
        <ele>572</ele>
        <time>2021-11-19T15:16:31Z</time>
      </trkpt>
      <trkpt lat="45.9422" lon="4.46837">
        <ele>571</ele>
        <time>2021-11-19T15:16:40Z</time>
      </trkpt>
      <trkpt lat="45.94224" lon="4.46847">
        <ele>569</ele>
        <time>2021-11-19T15:16:41Z</time>
      </trkpt>
      <trkpt lat="45.94238" lon="4.46864">
        <ele>567</ele>
        <time>2021-11-19T15:16:46Z</time>
      </trkpt>
      <trkpt lat="45.94283" lon="4.46899">
        <ele>559</ele>
        <time>2021-11-19T15:16:58Z</time>
      </trkpt>
      <trkpt lat="45.94336" lon="4.46921">
        <ele>554</ele>
        <time>2021-11-19T15:17:11Z</time>
      </trkpt>
      <trkpt lat="45.94322" lon="4.46955">
        <ele>549</ele>
        <time>2021-11-19T15:17:17Z</time>
      </trkpt>
      <trkpt lat="45.94315" lon="4.46979">
        <ele>545</ele>
        <time>2021-11-19T15:17:21Z</time>
      </trkpt>
      <trkpt lat="45.94286" lon="4.47045">
        <ele>530</ele>
        <time>2021-11-19T15:17:34Z</time>
      </trkpt>
      <trkpt lat="45.94272" lon="4.47062">
        <ele>526</ele>
        <time>2021-11-19T15:17:38Z</time>
      </trkpt>
      <trkpt lat="45.94266" lon="4.47074">
        <ele>524</ele>
        <time>2021-11-19T15:17:41Z</time>
      </trkpt>
      <trkpt lat="45.9429" lon="4.47114">
        <ele>513</ele>
        <time>2021-11-19T15:17:49Z</time>
      </trkpt>
      <trkpt lat="45.94309" lon="4.47124">
        <ele>510</ele>
        <time>2021-11-19T15:17:54Z</time>
      </trkpt>
      <trkpt lat="45.94308" lon="4.47136">
        <ele>507</ele>
        <time>2021-11-19T15:17:56Z</time>
      </trkpt>
      <trkpt lat="45.9427" lon="4.47183">
        <ele>497</ele>
        <time>2021-11-19T15:18:08Z</time>
      </trkpt>
      <trkpt lat="45.94262" lon="4.47187">
        <ele>496</ele>
        <time>2021-11-19T15:18:10Z</time>
      </trkpt>
      <trkpt lat="45.94274" lon="4.47198">
        <ele>493</ele>
        <time>2021-11-19T15:18:13Z</time>
      </trkpt>
      <trkpt lat="45.94286" lon="4.47205">
        <ele>491</ele>
        <time>2021-11-19T15:18:16Z</time>
      </trkpt>
      <trkpt lat="45.94316" lon="4.47212">
        <ele>488</ele>
        <time>2021-11-19T15:18:23Z</time>
      </trkpt>
      <trkpt lat="45.94356" lon="4.4719">
        <ele>487</ele>
        <time>2021-11-19T15:18:33Z</time>
      </trkpt>
      <trkpt lat="45.94418" lon="4.47148">
        <ele>481</ele>
        <time>2021-11-19T15:18:49Z</time>
      </trkpt>
      <trkpt lat="45.94522" lon="4.47128">
        <ele>456</ele>
        <time>2021-11-19T15:19:13Z</time>
      </trkpt>
      <trkpt lat="45.94613" lon="4.47075">
        <ele>443</ele>
        <time>2021-11-19T15:19:36Z</time>
      </trkpt>
      <trkpt lat="45.94575" lon="4.4715">
        <ele>438</ele>
        <time>2021-11-19T15:19:51Z</time>
      </trkpt>
      <trkpt lat="45.94546" lon="4.47189">
        <ele>439</ele>
        <time>2021-11-19T15:20:01Z</time>
      </trkpt>
      <trkpt lat="45.94436" lon="4.47311">
        <ele>435</ele>
        <time>2021-11-19T15:20:33Z</time>
      </trkpt>
      <trkpt lat="45.94363" lon="4.47426">
        <ele>429</ele>
        <time>2021-11-19T15:20:58Z</time>
      </trkpt>
      <trkpt lat="45.94336" lon="4.47442">
        <ele>431</ele>
        <time>2021-11-19T15:21:05Z</time>
      </trkpt>
      <trkpt lat="45.94255" lon="4.47564">
        <ele>425</ele>
        <time>2021-11-19T15:21:33Z</time>
      </trkpt>
      <trkpt lat="45.9417" lon="4.47617">
        <ele>427</ele>
        <time>2021-11-19T15:21:54Z</time>
      </trkpt>
      <trkpt lat="45.94138" lon="4.47658">
        <ele>420</ele>
        <time>2021-11-19T15:22:04Z</time>
      </trkpt>
      <trkpt lat="45.94068" lon="4.47727">
        <ele>419</ele>
        <time>2021-11-19T15:22:24Z</time>
      </trkpt>
      <trkpt lat="45.93966" lon="4.47862">
        <ele>409</ele>
        <time>2021-11-19T15:22:57Z</time>
      </trkpt>
      <trkpt lat="45.93921" lon="4.47913">
        <ele>406</ele>
        <time>2021-11-19T15:23:10Z</time>
      </trkpt>
      <trkpt lat="45.93869" lon="4.47982">
        <ele>403</ele>
        <time>2021-11-19T15:23:26Z</time>
      </trkpt>
      <trkpt lat="45.9388" lon="4.47976">
        <ele>403</ele>
        <time>2021-11-19T15:23:29Z</time>
      </trkpt>
      <trkpt lat="45.93902" lon="4.47955">
        <ele>404</ele>
        <time>2021-11-19T15:23:35Z</time>
      </trkpt>
      <trkpt lat="45.93916" lon="4.47949">
        <ele>404</ele>
        <time>2021-11-19T15:23:39Z</time>
      </trkpt>
      <trkpt lat="45.93934" lon="4.4793">
        <ele>405</ele>
        <time>2021-11-19T15:23:44Z</time>
      </trkpt>
      <trkpt lat="45.93996" lon="4.47883">
        <ele>404</ele>
        <time>2021-11-19T15:24:00Z</time>
      </trkpt>
      <trkpt lat="45.94031" lon="4.47892">
        <ele>406</ele>
        <time>2021-11-19T15:24:09Z</time>
      </trkpt>
      <trkpt lat="45.94172" lon="4.47984">
        <ele>423</ele>
        <time>2021-11-19T15:24:45Z</time>
      </trkpt>
      <trkpt lat="45.94193" lon="4.47991">
        <ele>427</ele>
        <time>2021-11-19T15:24:50Z</time>
      </trkpt>
      <trkpt lat="45.9421" lon="4.47992">
        <ele>431</ele>
        <time>2021-11-19T15:24:54Z</time>
      </trkpt>
      <trkpt lat="45.9427" lon="4.48028">
        <ele>438</ele>
        <time>2021-11-19T15:25:09Z</time>
      </trkpt>
      <trkpt lat="45.94325" lon="4.48046">
        <ele>440</ele>
        <time>2021-11-19T15:25:22Z</time>
      </trkpt>
      <trkpt lat="45.94387" lon="4.48079">
        <ele>442</ele>
        <time>2021-11-19T15:25:38Z</time>
      </trkpt>
      <trkpt lat="45.94413" lon="4.481">
        <ele>444</ele>
        <time>2021-11-19T15:25:45Z</time>
      </trkpt>
      <trkpt lat="45.94426" lon="4.48115">
        <ele>443</ele>
        <time>2021-11-19T15:25:48Z</time>
      </trkpt>
      <trkpt lat="45.9445" lon="4.48124">
        <ele>446</ele>
        <time>2021-11-19T15:25:54Z</time>
      </trkpt>
      <trkpt lat="45.94462" lon="4.48132">
        <ele>446</ele>
        <time>2021-11-19T15:25:57Z</time>
      </trkpt>
      <trkpt lat="45.94522" lon="4.48149">
        <ele>450</ele>
        <time>2021-11-19T15:26:12Z</time>
      </trkpt>
      <trkpt lat="45.94576" lon="4.48173">
        <ele>453</ele>
        <time>2021-11-19T15:26:25Z</time>
      </trkpt>
      <trkpt lat="45.94623" lon="4.48204">
        <ele>457</ele>
        <time>2021-11-19T15:26:37Z</time>
      </trkpt>
      <trkpt lat="45.94635" lon="4.48205">
        <ele>459</ele>
        <time>2021-11-19T15:26:40Z</time>
      </trkpt>
      <trkpt lat="45.94659" lon="4.48217">
        <ele>460</ele>
        <time>2021-11-19T15:26:46Z</time>
      </trkpt>
      <trkpt lat="45.94683" lon="4.48245">
        <ele>458</ele>
        <time>2021-11-19T15:26:53Z</time>
      </trkpt>
      <trkpt lat="45.94788" lon="4.48316">
        <ele>477</ele>
        <time>2021-11-19T15:27:20Z</time>
      </trkpt>
      <trkpt lat="45.94821" lon="4.48352">
        <ele>482</ele>
        <time>2021-11-19T15:27:30Z</time>
      </trkpt>
      <trkpt lat="45.94869" lon="4.48423">
        <ele>475</ele>
        <time>2021-11-19T15:27:46Z</time>
      </trkpt>
      <trkpt lat="45.94902" lon="4.48453">
        <ele>479</ele>
        <time>2021-11-19T15:27:55Z</time>
      </trkpt>
      <trkpt lat="45.94938" lon="4.48481">
        <ele>480</ele>
        <time>2021-11-19T15:28:04Z</time>
      </trkpt>
      <trkpt lat="45.94983" lon="4.48498">
        <ele>483</ele>
        <time>2021-11-19T15:28:15Z</time>
      </trkpt>
      <trkpt lat="45.94993" lon="4.48507">
        <ele>485</ele>
        <time>2021-11-19T15:28:18Z</time>
      </trkpt>
      <trkpt lat="45.95037" lon="4.48526">
        <ele>489</ele>
        <time>2021-11-19T15:28:29Z</time>
      </trkpt>
      <trkpt lat="45.95094" lon="4.48535">
        <ele>494</ele>
        <time>2021-11-19T15:28:42Z</time>
      </trkpt>
      <trkpt lat="45.95246" lon="4.48541">
        <ele>519</ele>
        <time>2021-11-19T15:29:18Z</time>
      </trkpt>
      <trkpt lat="45.95314" lon="4.48555">
        <ele>528</ele>
        <time>2021-11-19T15:29:34Z</time>
      </trkpt>
      <trkpt lat="45.95435" lon="4.48601">
        <ele>543</ele>
        <time>2021-11-19T15:30:03Z</time>
      </trkpt>
      <trkpt lat="45.95447" lon="4.48602">
        <ele>545</ele>
        <time>2021-11-19T15:30:06Z</time>
      </trkpt>
      <trkpt lat="45.95471" lon="4.4858">
        <ele>548</ele>
        <time>2021-11-19T15:30:12Z</time>
      </trkpt>
      <trkpt lat="45.95531" lon="4.48599">
        <ele>559</ele>
        <time>2021-11-19T15:30:27Z</time>
      </trkpt>
      <trkpt lat="45.95558" lon="4.48599">
        <ele>564</ele>
        <time>2021-11-19T15:30:33Z</time>
      </trkpt>
      <trkpt lat="45.9568" lon="4.48589">
        <ele>589</ele>
        <time>2021-11-19T15:31:02Z</time>
      </trkpt>
      <trkpt lat="45.95678" lon="4.48595">
        <ele>589</ele>
        <time>2021-11-19T15:31:03Z</time>
      </trkpt>
      <trkpt lat="45.95648" lon="4.48622">
        <ele>583</ele>
        <time>2021-11-19T15:31:11Z</time>
      </trkpt>
      <trkpt lat="45.95617" lon="4.48674">
        <ele>582</ele>
        <time>2021-11-19T15:31:22Z</time>
      </trkpt>
      <trkpt lat="45.95605" lon="4.48687">
        <ele>584</ele>
        <time>2021-11-19T15:31:26Z</time>
      </trkpt>
      <trkpt lat="45.95546" lon="4.4871">
        <ele>580</ele>
        <time>2021-11-19T15:31:40Z</time>
      </trkpt>
      <trkpt lat="45.95534" lon="4.48719">
        <ele>580</ele>
        <time>2021-11-19T15:31:43Z</time>
      </trkpt>
      <trkpt lat="45.95502" lon="4.48758">
        <ele>585</ele>
        <time>2021-11-19T15:31:53Z</time>
      </trkpt>
      <trkpt lat="45.95487" lon="4.48801">
        <ele>595</ele>
        <time>2021-11-19T15:32:01Z</time>
      </trkpt>
      <trkpt lat="45.95471" lon="4.48825">
        <ele>600</ele>
        <time>2021-11-19T15:32:06Z</time>
      </trkpt>
      <trkpt lat="45.95452" lon="4.48835">
        <ele>602</ele>
        <time>2021-11-19T15:32:11Z</time>
      </trkpt>
      <trkpt lat="45.95388" lon="4.48822">
        <ele>596</ele>
        <time>2021-11-19T15:32:26Z</time>
      </trkpt>
      <trkpt lat="45.95324" lon="4.48816">
        <ele>595</ele>
        <time>2021-11-19T15:32:41Z</time>
      </trkpt>
      <trkpt lat="45.95283" lon="4.48797">
        <ele>586</ele>
        <time>2021-11-19T15:32:51Z</time>
      </trkpt>
      <trkpt lat="45.95227" lon="4.48808">
        <ele>581</ele>
        <time>2021-11-19T15:33:04Z</time>
      </trkpt>
      <trkpt lat="45.95196" lon="4.48818">
        <ele>574</ele>
        <time>2021-11-19T15:33:11Z</time>
      </trkpt>
      <trkpt lat="45.95175" lon="4.48835">
        <ele>571</ele>
        <time>2021-11-19T15:33:17Z</time>
      </trkpt>
      <trkpt lat="45.95162" lon="4.48868">
        <ele>569</ele>
        <time>2021-11-19T15:33:23Z</time>
      </trkpt>
      <trkpt lat="45.95158" lon="4.48899">
        <ele>571</ele>
        <time>2021-11-19T15:33:28Z</time>
      </trkpt>
      <trkpt lat="45.95169" lon="4.48966">
        <ele>578</ele>
        <time>2021-11-19T15:33:40Z</time>
      </trkpt>
      <trkpt lat="45.95159" lon="4.48976">
        <ele>576</ele>
        <time>2021-11-19T15:33:42Z</time>
      </trkpt>
      <trkpt lat="45.95117" lon="4.49001">
        <ele>565</ele>
        <time>2021-11-19T15:33:53Z</time>
      </trkpt>
      <trkpt lat="45.95081" lon="4.4903">
        <ele>560</ele>
        <time>2021-11-19T15:34:03Z</time>
      </trkpt>
      <trkpt lat="45.95047" lon="4.49117">
        <ele>577</ele>
        <time>2021-11-19T15:34:19Z</time>
      </trkpt>
      <trkpt lat="45.95044" lon="4.4913">
        <ele>578</ele>
        <time>2021-11-19T15:34:21Z</time>
      </trkpt>
      <trkpt lat="45.95026" lon="4.49161">
        <ele>582</ele>
        <time>2021-11-19T15:34:28Z</time>
      </trkpt>
      <trkpt lat="45.95018" lon="4.49156">
        <ele>582</ele>
        <time>2021-11-19T15:34:30Z</time>
      </trkpt>
      <trkpt lat="45.94999" lon="4.49165">
        <ele>582</ele>
        <time>2021-11-19T15:34:34Z</time>
      </trkpt>
      <trkpt lat="45.94952" lon="4.49211">
        <ele>598</ele>
        <time>2021-11-19T15:34:48Z</time>
      </trkpt>
      <trkpt lat="45.94922" lon="4.49259">
        <ele>602</ele>
        <time>2021-11-19T15:34:58Z</time>
      </trkpt>
      <trkpt lat="45.94899" lon="4.49286">
        <ele>610</ele>
        <time>2021-11-19T15:35:05Z</time>
      </trkpt>
      <trkpt lat="45.94907" lon="4.49303">
        <ele>608</ele>
        <time>2021-11-19T15:35:08Z</time>
      </trkpt>
      <trkpt lat="45.94926" lon="4.49315">
        <ele>606</ele>
        <time>2021-11-19T15:35:13Z</time>
      </trkpt>
      <trkpt lat="45.94931" lon="4.49331">
        <ele>607</ele>
        <time>2021-11-19T15:35:16Z</time>
      </trkpt>
      <trkpt lat="45.9493" lon="4.49392">
        <ele>610</ele>
        <time>2021-11-19T15:35:26Z</time>
      </trkpt>
      <trkpt lat="45.94932" lon="4.494">
        <ele>611</ele>
        <time>2021-11-19T15:35:27Z</time>
      </trkpt>
      <trkpt lat="45.94932" lon="4.49425">
        <ele>611</ele>
        <time>2021-11-19T15:35:31Z</time>
      </trkpt>
      <trkpt lat="45.94915" lon="4.49521">
        <ele>605</ele>
        <time>2021-11-19T15:35:47Z</time>
      </trkpt>
      <trkpt lat="45.9487" lon="4.49609">
        <ele>598</ele>
        <time>2021-11-19T15:36:05Z</time>
      </trkpt>
      <trkpt lat="45.94856" lon="4.49648">
        <ele>592</ele>
        <time>2021-11-19T15:36:12Z</time>
      </trkpt>
      <trkpt lat="45.94856" lon="4.49686">
        <ele>584</ele>
        <time>2021-11-19T15:36:18Z</time>
      </trkpt>
      <trkpt lat="45.94861" lon="4.49716">
        <ele>575</ele>
        <time>2021-11-19T15:36:23Z</time>
      </trkpt>
      <trkpt lat="45.94873" lon="4.49728">
        <ele>572</ele>
        <time>2021-11-19T15:36:27Z</time>
      </trkpt>
      <trkpt lat="45.949" lon="4.49737">
        <ele>570</ele>
        <time>2021-11-19T15:36:33Z</time>
      </trkpt>
      <trkpt lat="45.94909" lon="4.49746">
        <ele>568</ele>
        <time>2021-11-19T15:36:36Z</time>
      </trkpt>
      <trkpt lat="45.94903" lon="4.49792">
        <ele>558</ele>
        <time>2021-11-19T15:36:44Z</time>
      </trkpt>
      <trkpt lat="45.94903" lon="4.49839">
        <ele>548</ele>
        <time>2021-11-19T15:36:51Z</time>
      </trkpt>
      <trkpt lat="45.94899" lon="4.49916">
        <ele>540</ele>
        <time>2021-11-19T15:37:04Z</time>
      </trkpt>
      <trkpt lat="45.9488" lon="4.49955">
        <ele>533</ele>
        <time>2021-11-19T15:37:11Z</time>
      </trkpt>
      <trkpt lat="45.94882" lon="4.50027">
        <ele>525</ele>
        <time>2021-11-19T15:37:23Z</time>
      </trkpt>
      <trkpt lat="45.94874" lon="4.50158">
        <ele>514</ele>
        <time>2021-11-19T15:37:44Z</time>
      </trkpt>
      <trkpt lat="45.94863" lon="4.50223">
        <ele>510</ele>
        <time>2021-11-19T15:37:55Z</time>
      </trkpt>
      <trkpt lat="45.94861" lon="4.50401">
        <ele>488</ele>
        <time>2021-11-19T15:38:24Z</time>
      </trkpt>
      <trkpt lat="45.94854" lon="4.50443">
        <ele>482</ele>
        <time>2021-11-19T15:38:31Z</time>
      </trkpt>
      <trkpt lat="45.94856" lon="4.50454">
        <ele>480</ele>
        <time>2021-11-19T15:38:33Z</time>
      </trkpt>
      <trkpt lat="45.94871" lon="4.50478">
        <ele>477</ele>
        <time>2021-11-19T15:38:38Z</time>
      </trkpt>
      <trkpt lat="45.94871" lon="4.50488">
        <ele>475</ele>
        <time>2021-11-19T15:38:40Z</time>
      </trkpt>
      <trkpt lat="45.94864" lon="4.5054">
        <ele>468</ele>
        <time>2021-11-19T15:38:49Z</time>
      </trkpt>
      <trkpt lat="45.94847" lon="4.50587">
        <ele>461</ele>
        <time>2021-11-19T15:38:57Z</time>
      </trkpt>
      <trkpt lat="45.94848" lon="4.50597">
        <ele>460</ele>
        <time>2021-11-19T15:38:59Z</time>
      </trkpt>
      <trkpt lat="45.94878" lon="4.50673">
        <ele>450</ele>
        <time>2021-11-19T15:39:13Z</time>
      </trkpt>
      <trkpt lat="45.94879" lon="4.5068">
        <ele>450</ele>
        <time>2021-11-19T15:39:14Z</time>
      </trkpt>
      <trkpt lat="45.94878" lon="4.50693">
        <ele>448</ele>
        <time>2021-11-19T15:39:16Z</time>
      </trkpt>
      <trkpt lat="45.94868" lon="4.50733">
        <ele>444</ele>
        <time>2021-11-19T15:39:23Z</time>
      </trkpt>
      <trkpt lat="45.94844" lon="4.50774">
        <ele>440</ele>
        <time>2021-11-19T15:39:32Z</time>
      </trkpt>
      <trkpt lat="45.9483" lon="4.50789">
        <ele>437</ele>
        <time>2021-11-19T15:39:36Z</time>
      </trkpt>
      <trkpt lat="45.94826" lon="4.50802">
        <ele>435</ele>
        <time>2021-11-19T15:39:38Z</time>
      </trkpt>
      <trkpt lat="45.94831" lon="4.50872">
        <ele>431</ele>
        <time>2021-11-19T15:39:50Z</time>
      </trkpt>
      <trkpt lat="45.94846" lon="4.51014">
        <ele>422</ele>
        <time>2021-11-19T15:40:13Z</time>
      </trkpt>
      <trkpt lat="45.94855" lon="4.51058">
        <ele>421</ele>
        <time>2021-11-19T15:40:20Z</time>
      </trkpt>
      <trkpt lat="45.94869" lon="4.51083">
        <ele>420</ele>
        <time>2021-11-19T15:40:26Z</time>
      </trkpt>
      <trkpt lat="45.94872" lon="4.51096">
        <ele>419</ele>
        <time>2021-11-19T15:40:28Z</time>
      </trkpt>
      <trkpt lat="45.94876" lon="4.51144">
        <ele>416</ele>
        <time>2021-11-19T15:40:36Z</time>
      </trkpt>
      <trkpt lat="45.94875" lon="4.51171">
        <ele>415</ele>
        <time>2021-11-19T15:40:40Z</time>
      </trkpt>
      <trkpt lat="45.94872" lon="4.51189">
        <ele>413</ele>
        <time>2021-11-19T15:40:43Z</time>
      </trkpt>
      <trkpt lat="45.94863" lon="4.51215">
        <ele>412</ele>
        <time>2021-11-19T15:40:48Z</time>
      </trkpt>
      <trkpt lat="45.94858" lon="4.51269">
        <ele>408</ele>
        <time>2021-11-19T15:40:57Z</time>
      </trkpt>
      <trkpt lat="45.94841" lon="4.51321">
        <ele>405</ele>
        <time>2021-11-19T15:41:06Z</time>
      </trkpt>
      <trkpt lat="45.94836" lon="4.51349">
        <ele>404</ele>
        <time>2021-11-19T15:41:11Z</time>
      </trkpt>
      <trkpt lat="45.94834" lon="4.51398">
        <ele>400</ele>
        <time>2021-11-19T15:41:19Z</time>
      </trkpt>
      <trkpt lat="45.94838" lon="4.51486">
        <ele>395</ele>
        <time>2021-11-19T15:41:33Z</time>
      </trkpt>
      <trkpt lat="45.94831" lon="4.51563">
        <ele>389</ele>
        <time>2021-11-19T15:41:46Z</time>
      </trkpt>
      <trkpt lat="45.9483" lon="4.5164">
        <ele>383</ele>
        <time>2021-11-19T15:41:58Z</time>
      </trkpt>
      <trkpt lat="45.94823" lon="4.51709">
        <ele>377</ele>
        <time>2021-11-19T15:42:09Z</time>
      </trkpt>
      <trkpt lat="45.94814" lon="4.51746">
        <ele>373</ele>
        <time>2021-11-19T15:42:16Z</time>
      </trkpt>
      <trkpt lat="45.94795" lon="4.51915">
        <ele>354</ele>
        <time>2021-11-19T15:42:44Z</time>
      </trkpt>
      <trkpt lat="45.94792" lon="4.51994">
        <ele>347</ele>
        <time>2021-11-19T15:42:56Z</time>
      </trkpt>
      <trkpt lat="45.94781" lon="4.52056">
        <ele>340</ele>
        <time>2021-11-19T15:43:07Z</time>
      </trkpt>
      <trkpt lat="45.94763" lon="4.52086">
        <ele>336</ele>
        <time>2021-11-19T15:43:13Z</time>
      </trkpt>
      <trkpt lat="45.94742" lon="4.5213">
        <ele>332</ele>
        <time>2021-11-19T15:43:22Z</time>
      </trkpt>
      <trkpt lat="45.94721" lon="4.52178">
        <ele>330</ele>
        <time>2021-11-19T15:43:31Z</time>
      </trkpt>
      <trkpt lat="45.94708" lon="4.52218">
        <ele>331</ele>
        <time>2021-11-19T15:43:38Z</time>
      </trkpt>
      <trkpt lat="45.947" lon="4.52233">
        <ele>331</ele>
        <time>2021-11-19T15:43:41Z</time>
      </trkpt>
      <trkpt lat="45.94695" lon="4.52236">
        <ele>330</ele>
        <time>2021-11-19T15:43:43Z</time>
      </trkpt>
      <trkpt lat="45.94707" lon="4.52244">
        <ele>331</ele>
        <time>2021-11-19T15:43:46Z</time>
      </trkpt>
      <trkpt lat="45.9471" lon="4.52256">
        <ele>331</ele>
        <time>2021-11-19T15:43:48Z</time>
      </trkpt>
      <trkpt lat="45.94712" lon="4.52301">
        <ele>332</ele>
        <time>2021-11-19T15:43:55Z</time>
      </trkpt>
      <trkpt lat="45.94707" lon="4.52334">
        <ele>332</ele>
        <time>2021-11-19T15:44:01Z</time>
      </trkpt>
      <trkpt lat="45.94684" lon="4.52439">
        <ele>338</ele>
        <time>2021-11-19T15:44:19Z</time>
      </trkpt>
      <trkpt lat="45.94665" lon="4.52471">
        <ele>341</ele>
        <time>2021-11-19T15:44:25Z</time>
      </trkpt>
      <trkpt lat="45.94652" lon="4.52502">
        <ele>345</ele>
        <time>2021-11-19T15:44:31Z</time>
      </trkpt>
      <trkpt lat="45.9464" lon="4.52513">
        <ele>344</ele>
        <time>2021-11-19T15:44:35Z</time>
      </trkpt>
      <trkpt lat="45.94596" lon="4.52527">
        <ele>341</ele>
        <time>2021-11-19T15:44:45Z</time>
      </trkpt>
      <trkpt lat="45.94589" lon="4.52539">
        <ele>342</ele>
        <time>2021-11-19T15:44:48Z</time>
      </trkpt>
      <trkpt lat="45.94566" lon="4.52552">
        <ele>340</ele>
        <time>2021-11-19T15:44:53Z</time>
      </trkpt>
      <trkpt lat="45.94552" lon="4.52577">
        <ele>341</ele>
        <time>2021-11-19T15:44:59Z</time>
      </trkpt>
      <trkpt lat="45.94546" lon="4.52599">
        <ele>342</ele>
        <time>2021-11-19T15:45:02Z</time>
      </trkpt>
      <trkpt lat="45.94537" lon="4.52654">
        <ele>347</ele>
        <time>2021-11-19T15:45:12Z</time>
      </trkpt>
      <trkpt lat="45.94534" lon="4.52704">
        <ele>348</ele>
        <time>2021-11-19T15:45:20Z</time>
      </trkpt>
      <trkpt lat="45.94536" lon="4.52745">
        <ele>349</ele>
        <time>2021-11-19T15:45:26Z</time>
      </trkpt>
      <trkpt lat="45.9454" lon="4.5275">
        <ele>349</ele>
        <time>2021-11-19T15:45:28Z</time>
      </trkpt>
      <trkpt lat="45.94547" lon="4.52747">
        <ele>349</ele>
        <time>2021-11-19T15:45:29Z</time>
      </trkpt>
      <trkpt lat="45.94558" lon="4.52733">
        <ele>349</ele>
        <time>2021-11-19T15:45:33Z</time>
      </trkpt>
      <trkpt lat="45.94574" lon="4.52701">
        <ele>352</ele>
        <time>2021-11-19T15:45:39Z</time>
      </trkpt>
      <trkpt lat="45.94583" lon="4.5267">
        <ele>357</ele>
        <time>2021-11-19T15:45:45Z</time>
      </trkpt>
      <trkpt lat="45.94588" lon="4.52683">
        <ele>354</ele>
        <time>2021-11-19T15:45:47Z</time>
      </trkpt>
      <trkpt lat="45.94584" lon="4.52722">
        <ele>350</ele>
        <time>2021-11-19T15:45:54Z</time>
      </trkpt>
      <trkpt lat="45.94542" lon="4.52875">
        <ele>332</ele>
        <time>2021-11-19T15:46:20Z</time>
      </trkpt>
      <trkpt lat="45.94533" lon="4.52899">
        <ele>331</ele>
        <time>2021-11-19T15:46:25Z</time>
      </trkpt>
      <trkpt lat="45.94518" lon="4.52929">
        <ele>330</ele>
        <time>2021-11-19T15:46:31Z</time>
      </trkpt>
      <trkpt lat="45.94513" lon="4.52933">
        <ele>331</ele>
        <time>2021-11-19T15:46:32Z</time>
      </trkpt>
      <trkpt lat="45.94508" lon="4.52948">
        <ele>330</ele>
        <time>2021-11-19T15:46:35Z</time>
      </trkpt>
      <trkpt lat="45.94498" lon="4.53002">
        <ele>322</ele>
        <time>2021-11-19T15:46:44Z</time>
      </trkpt>
      <trkpt lat="45.94488" lon="4.5309">
        <ele>310</ele>
        <time>2021-11-19T15:46:58Z</time>
      </trkpt>
      <trkpt lat="45.94476" lon="4.53151">
        <ele>302</ele>
        <time>2021-11-19T15:47:09Z</time>
      </trkpt>
      <trkpt lat="45.94468" lon="4.53218">
        <ele>292</ele>
        <time>2021-11-19T15:47:20Z</time>
      </trkpt>
      <trkpt lat="45.94467" lon="4.53242">
        <ele>288</ele>
        <time>2021-11-19T15:47:23Z</time>
      </trkpt>
      <trkpt lat="45.9447" lon="4.53257">
        <ele>286</ele>
        <time>2021-11-19T15:47:26Z</time>
      </trkpt>
      <trkpt lat="45.94468" lon="4.53302">
        <ele>283</ele>
        <time>2021-11-19T15:47:33Z</time>
      </trkpt>
      <trkpt lat="45.94462" lon="4.53318">
        <ele>282</ele>
        <time>2021-11-19T15:47:36Z</time>
      </trkpt>
      <trkpt lat="45.94463" lon="4.53327">
        <ele>281</ele>
        <time>2021-11-19T15:47:38Z</time>
      </trkpt>
      <trkpt lat="45.94455" lon="4.53344">
        <ele>280</ele>
        <time>2021-11-19T15:47:41Z</time>
      </trkpt>
      <trkpt lat="45.94426" lon="4.53371">
        <ele>280</ele>
        <time>2021-11-19T15:47:49Z</time>
      </trkpt>
      <trkpt lat="45.94418" lon="4.53389">
        <ele>279</ele>
        <time>2021-11-19T15:47:53Z</time>
      </trkpt>
      <trkpt lat="45.9442" lon="4.53422">
        <ele>277</ele>
        <time>2021-11-19T15:47:58Z</time>
      </trkpt>
      <trkpt lat="45.94435" lon="4.53427">
        <ele>277</ele>
        <time>2021-11-19T15:48:02Z</time>
      </trkpt>
      <trkpt lat="45.9446" lon="4.53494">
        <ele>275</ele>
        <time>2021-11-19T15:48:14Z</time>
      </trkpt>
      <trkpt lat="45.94477" lon="4.5355">
        <ele>274</ele>
        <time>2021-11-19T15:48:24Z</time>
      </trkpt>
      <trkpt lat="45.945" lon="4.536">
        <ele>274</ele>
        <time>2021-11-19T15:48:34Z</time>
      </trkpt>
      <trkpt lat="45.94521" lon="4.53631">
        <ele>274</ele>
        <time>2021-11-19T15:48:41Z</time>
      </trkpt>
      <trkpt lat="45.94561" lon="4.5368">
        <ele>277</ele>
        <time>2021-11-19T15:48:53Z</time>
      </trkpt>
      <trkpt lat="45.94579" lon="4.53708">
        <ele>280</ele>
        <time>2021-11-19T15:48:59Z</time>
      </trkpt>
      <trkpt lat="45.94552" lon="4.53748">
        <ele>282</ele>
        <time>2021-11-19T15:49:08Z</time>
      </trkpt>
      <trkpt lat="45.94571" lon="4.53765">
        <ele>285</ele>
        <time>2021-11-19T15:49:13Z</time>
      </trkpt>
      <trkpt lat="45.94584" lon="4.5385">
        <ele>296</ele>
        <time>2021-11-19T15:49:28Z</time>
      </trkpt>
      <trkpt lat="45.94584" lon="4.53888">
        <ele>299</ele>
        <time>2021-11-19T15:49:34Z</time>
      </trkpt>
      <trkpt lat="45.94586" lon="4.53897">
        <ele>300</ele>
        <time>2021-11-19T15:49:35Z</time>
      </trkpt>
      <trkpt lat="45.94631" lon="4.53948">
        <ele>307</ele>
        <time>2021-11-19T15:49:49Z</time>
      </trkpt>
      <trkpt lat="45.9464" lon="4.53948">
        <ele>308</ele>
        <time>2021-11-19T15:49:51Z</time>
      </trkpt>
      <trkpt lat="45.94666" lon="4.53915">
        <ele>307</ele>
        <time>2021-11-19T15:49:59Z</time>
      </trkpt>
      <trkpt lat="45.94687" lon="4.53878">
        <ele>308</ele>
        <time>2021-11-19T15:50:07Z</time>
      </trkpt>
      <trkpt lat="45.94702" lon="4.53867">
        <ele>310</ele>
        <time>2021-11-19T15:50:10Z</time>
      </trkpt>
      <trkpt lat="45.94733" lon="4.53864">
        <ele>316</ele>
        <time>2021-11-19T15:50:18Z</time>
      </trkpt>
      <trkpt lat="45.94739" lon="4.53893">
        <ele>318</ele>
        <time>2021-11-19T15:50:23Z</time>
      </trkpt>
      <trkpt lat="45.94739" lon="4.5391">
        <ele>319</ele>
        <time>2021-11-19T15:50:25Z</time>
      </trkpt>
      <trkpt lat="45.94741" lon="4.53916">
        <ele>319</ele>
        <time>2021-11-19T15:50:26Z</time>
      </trkpt>
      <trkpt lat="45.94745" lon="4.53917">
        <ele>320</ele>
        <time>2021-11-19T15:50:27Z</time>
      </trkpt>
      <trkpt lat="45.94747" lon="4.53914">
        <ele>320</ele>
        <time>2021-11-19T15:50:28Z</time>
      </trkpt>
      <trkpt lat="45.94751" lon="4.53919">
        <ele>321</ele>
        <time>2021-11-19T15:50:29Z</time>
      </trkpt>
      <trkpt lat="45.94753" lon="4.53947">
        <ele>324</ele>
        <time>2021-11-19T15:50:34Z</time>
      </trkpt>
      <trkpt lat="45.94758" lon="4.53958">
        <ele>326</ele>
        <time>2021-11-19T15:50:36Z</time>
      </trkpt>
      <trkpt lat="45.94763" lon="4.53981">
        <ele>330</ele>
        <time>2021-11-19T15:50:40Z</time>
      </trkpt>
      <trkpt lat="45.94786" lon="4.53981">
        <ele>335</ele>
        <time>2021-11-19T15:50:45Z</time>
      </trkpt>
      <trkpt lat="45.9481" lon="4.5401">
        <ele>344</ele>
        <time>2021-11-19T15:50:53Z</time>
      </trkpt>
      <trkpt lat="45.94833" lon="4.54008">
        <ele>349</ele>
        <time>2021-11-19T15:50:58Z</time>
      </trkpt>
      <trkpt lat="45.94866" lon="4.54025">
        <ele>357</ele>
        <time>2021-11-19T15:51:06Z</time>
      </trkpt>
      <trkpt lat="45.94903" lon="4.5404">
        <ele>366</ele>
        <time>2021-11-19T15:51:15Z</time>
      </trkpt>
      <trkpt lat="45.94919" lon="4.54044">
        <ele>370</ele>
        <time>2021-11-19T15:51:19Z</time>
      </trkpt>
      <trkpt lat="45.95015" lon="4.54143">
        <ele>381</ele>
        <time>2021-11-19T15:51:47Z</time>
      </trkpt>
      <trkpt lat="45.95051" lon="4.54184">
        <ele>383</ele>
        <time>2021-11-19T15:51:57Z</time>
      </trkpt>
      <trkpt lat="45.95068" lon="4.54183">
        <ele>384</ele>
        <time>2021-11-19T15:52:01Z</time>
      </trkpt>
      <trkpt lat="45.95103" lon="4.54173">
        <ele>384</ele>
        <time>2021-11-19T15:52:10Z</time>
      </trkpt>
      <trkpt lat="45.95122" lon="4.54176">
        <ele>384</ele>
        <time>2021-11-19T15:52:14Z</time>
      </trkpt>
      <trkpt lat="45.95152" lon="4.54185">
        <ele>384</ele>
        <time>2021-11-19T15:52:21Z</time>
      </trkpt>
      <trkpt lat="45.95196" lon="4.54216">
        <ele>386</ele>
        <time>2021-11-19T15:52:33Z</time>
      </trkpt>
      <trkpt lat="45.95206" lon="4.54236">
        <ele>388</ele>
        <time>2021-11-19T15:52:37Z</time>
      </trkpt>
      <trkpt lat="45.95248" lon="4.54342">
        <ele>389</ele>
        <time>2021-11-19T15:52:56Z</time>
      </trkpt>
      <trkpt lat="45.95303" lon="4.54465">
        <ele>391</ele>
        <time>2021-11-19T15:53:20Z</time>
      </trkpt>
      <trkpt lat="45.95303" lon="4.54521">
        <ele>391</ele>
        <time>2021-11-19T15:53:29Z</time>
      </trkpt>
      <trkpt lat="45.95299" lon="4.54609">
        <ele>394</ele>
        <time>2021-11-19T15:53:44Z</time>
      </trkpt>
      <trkpt lat="45.95284" lon="4.54681">
        <ele>396</ele>
        <time>2021-11-19T15:53:56Z</time>
      </trkpt>
      <trkpt lat="45.95283" lon="4.5471">
        <ele>396</ele>
        <time>2021-11-19T15:54:01Z</time>
      </trkpt>
      <trkpt lat="45.95288" lon="4.54731">
        <ele>396</ele>
        <time>2021-11-19T15:54:04Z</time>
      </trkpt>
      <trkpt lat="45.95301" lon="4.54746">
        <ele>398</ele>
        <time>2021-11-19T15:54:08Z</time>
      </trkpt>
      <trkpt lat="45.95364" lon="4.54793">
        <ele>405</ele>
        <time>2021-11-19T15:54:25Z</time>
      </trkpt>
      <trkpt lat="45.9536" lon="4.54855">
        <ele>404</ele>
        <time>2021-11-19T15:54:35Z</time>
      </trkpt>
      <trkpt lat="45.95369" lon="4.54909">
        <ele>405</ele>
        <time>2021-11-19T15:54:44Z</time>
      </trkpt>
      <trkpt lat="45.95372" lon="4.54993">
        <ele>404</ele>
        <time>2021-11-19T15:54:57Z</time>
      </trkpt>
      <trkpt lat="45.95381" lon="4.55041">
        <ele>401</ele>
        <time>2021-11-19T15:55:05Z</time>
      </trkpt>
      <trkpt lat="45.95381" lon="4.55081">
        <ele>398</ele>
        <time>2021-11-19T15:55:12Z</time>
      </trkpt>
      <trkpt lat="45.95396" lon="4.55144">
        <ele>394</ele>
        <time>2021-11-19T15:55:23Z</time>
      </trkpt>
      <trkpt lat="45.95429" lon="4.55209">
        <ele>393</ele>
        <time>2021-11-19T15:55:36Z</time>
      </trkpt>
      <trkpt lat="45.95427" lon="4.55235">
        <ele>391</ele>
        <time>2021-11-19T15:55:40Z</time>
      </trkpt>
      <trkpt lat="45.95409" lon="4.55335">
        <ele>386</ele>
        <time>2021-11-19T15:55:57Z</time>
      </trkpt>
      <trkpt lat="45.95408" lon="4.55418">
        <ele>389</ele>
        <time>2021-11-19T15:56:10Z</time>
      </trkpt>
      <trkpt lat="45.95396" lon="4.55445">
        <ele>389</ele>
        <time>2021-11-19T15:56:16Z</time>
      </trkpt>
      <trkpt lat="45.95402" lon="4.55463">
        <ele>390</ele>
        <time>2021-11-19T15:56:19Z</time>
      </trkpt>
      <trkpt lat="45.95398" lon="4.55489">
        <ele>391</ele>
        <time>2021-11-19T15:56:23Z</time>
      </trkpt>
      <trkpt lat="45.95382" lon="4.55538">
        <ele>394</ele>
        <time>2021-11-19T15:56:32Z</time>
      </trkpt>
      <trkpt lat="45.95359" lon="4.55637">
        <ele>398</ele>
        <time>2021-11-19T15:56:49Z</time>
      </trkpt>
      <trkpt lat="45.95359" lon="4.5565">
        <ele>398</ele>
        <time>2021-11-19T15:56:51Z</time>
      </trkpt>
      <trkpt lat="45.95331" lon="4.55729">
        <ele>391</ele>
        <time>2021-11-19T15:57:05Z</time>
      </trkpt>
      <trkpt lat="45.95329" lon="4.55747">
        <ele>389</ele>
        <time>2021-11-19T15:57:08Z</time>
      </trkpt>
      <trkpt lat="45.95338" lon="4.55772">
        <ele>389</ele>
        <time>2021-11-19T15:57:13Z</time>
      </trkpt>
      <trkpt lat="45.9534" lon="4.55793">
        <ele>388</ele>
        <time>2021-11-19T15:57:16Z</time>
      </trkpt>
      <trkpt lat="45.95335" lon="4.55815">
        <ele>385</ele>
        <time>2021-11-19T15:57:20Z</time>
      </trkpt>
      <trkpt lat="45.95285" lon="4.55913">
        <ele>373</ele>
        <time>2021-11-19T15:57:40Z</time>
      </trkpt>
      <trkpt lat="45.95256" lon="4.55935">
        <ele>367</ele>
        <time>2021-11-19T15:57:47Z</time>
      </trkpt>
      <trkpt lat="45.95199" lon="4.55972">
        <ele>356</ele>
        <time>2021-11-19T15:58:02Z</time>
      </trkpt>
      <trkpt lat="45.95171" lon="4.55973">
        <ele>351</ele>
        <time>2021-11-19T15:58:09Z</time>
      </trkpt>
      <trkpt lat="45.95159" lon="4.5597">
        <ele>350</ele>
        <time>2021-11-19T15:58:11Z</time>
      </trkpt>
      <trkpt lat="45.95153" lon="4.55973">
        <ele>350</ele>
        <time>2021-11-19T15:58:13Z</time>
      </trkpt>
      <trkpt lat="45.95151" lon="4.55987">
        <ele>349</ele>
        <time>2021-11-19T15:58:15Z</time>
      </trkpt>
      <trkpt lat="45.95152" lon="4.55995">
        <ele>348</ele>
        <time>2021-11-19T15:58:17Z</time>
      </trkpt>
      <trkpt lat="45.95157" lon="4.56003">
        <ele>348</ele>
        <time>2021-11-19T15:58:18Z</time>
      </trkpt>
      <trkpt lat="45.95223" lon="4.56036">
        <ele>357</ele>
        <time>2021-11-19T15:58:35Z</time>
      </trkpt>
      <trkpt lat="45.95228" lon="4.56044">
        <ele>357</ele>
        <time>2021-11-19T15:58:36Z</time>
      </trkpt>
      <trkpt lat="45.9523" lon="4.56058">
        <ele>357</ele>
        <time>2021-11-19T15:58:39Z</time>
      </trkpt>
      <trkpt lat="45.95229" lon="4.56074">
        <ele>356</ele>
        <time>2021-11-19T15:58:41Z</time>
      </trkpt>
      <trkpt lat="45.95215" lon="4.56084">
        <ele>353</ele>
        <time>2021-11-19T15:58:45Z</time>
      </trkpt>
      <trkpt lat="45.95189" lon="4.56093">
        <ele>348</ele>
        <time>2021-11-19T15:58:51Z</time>
      </trkpt>
      <trkpt lat="45.95192" lon="4.56097">
        <ele>349</ele>
        <time>2021-11-19T15:58:52Z</time>
      </trkpt>
      <trkpt lat="45.95194" lon="4.5611">
        <ele>349</ele>
        <time>2021-11-19T15:58:54Z</time>
      </trkpt>
      <trkpt lat="45.9519" lon="4.56129">
        <ele>349</ele>
        <time>2021-11-19T15:58:58Z</time>
      </trkpt>
      <trkpt lat="45.95207" lon="4.56186">
        <ele>353</ele>
        <time>2021-11-19T15:59:08Z</time>
      </trkpt>
      <trkpt lat="45.95226" lon="4.56262">
        <ele>358</ele>
        <time>2021-11-19T15:59:21Z</time>
      </trkpt>
      <trkpt lat="45.95238" lon="4.56325">
        <ele>359</ele>
        <time>2021-11-19T15:59:31Z</time>
      </trkpt>
      <trkpt lat="45.95243" lon="4.56341">
        <ele>360</ele>
        <time>2021-11-19T15:59:34Z</time>
      </trkpt>
      <trkpt lat="45.95252" lon="4.56357">
        <ele>361</ele>
        <time>2021-11-19T15:59:38Z</time>
      </trkpt>
      <trkpt lat="45.95276" lon="4.56456">
        <ele>363</ele>
        <time>2021-11-19T15:59:55Z</time>
      </trkpt>
      <trkpt lat="45.95278" lon="4.56476">
        <ele>363</ele>
        <time>2021-11-19T15:59:58Z</time>
      </trkpt>
      <trkpt lat="45.95284" lon="4.56489">
        <ele>363</ele>
        <time>2021-11-19T16:00:00Z</time>
      </trkpt>
      <trkpt lat="45.95293" lon="4.56534">
        <ele>363</ele>
        <time>2021-11-19T16:00:08Z</time>
      </trkpt>
      <trkpt lat="45.953" lon="4.56585">
        <ele>363</ele>
        <time>2021-11-19T16:00:16Z</time>
      </trkpt>
      <trkpt lat="45.95296" lon="4.5661">
        <ele>361</ele>
        <time>2021-11-19T16:00:21Z</time>
      </trkpt>
      <trkpt lat="45.95294" lon="4.56648">
        <ele>359</ele>
        <time>2021-11-19T16:00:27Z</time>
      </trkpt>
      <trkpt lat="45.95299" lon="4.56691">
        <ele>357</ele>
        <time>2021-11-19T16:00:34Z</time>
      </trkpt>
      <trkpt lat="45.95317" lon="4.56715">
        <ele>358</ele>
        <time>2021-11-19T16:00:40Z</time>
      </trkpt>
      <trkpt lat="45.95334" lon="4.56722">
        <ele>359</ele>
        <time>2021-11-19T16:00:44Z</time>
      </trkpt>
      <trkpt lat="45.95333" lon="4.56734">
        <ele>358</ele>
        <time>2021-11-19T16:00:46Z</time>
      </trkpt>
      <trkpt lat="45.95326" lon="4.56756">
        <ele>356</ele>
        <time>2021-11-19T16:00:50Z</time>
      </trkpt>
      <trkpt lat="45.95306" lon="4.5677">
        <ele>355</ele>
        <time>2021-11-19T16:00:55Z</time>
      </trkpt>
      <trkpt lat="45.95284" lon="4.56798">
        <ele>355</ele>
        <time>2021-11-19T16:01:02Z</time>
      </trkpt>
      <trkpt lat="45.95265" lon="4.56836">
        <ele>358</ele>
        <time>2021-11-19T16:01:09Z</time>
      </trkpt>
      <trkpt lat="45.95259" lon="4.56904">
        <ele>363</ele>
        <time>2021-11-19T16:01:20Z</time>
      </trkpt>
      <trkpt lat="45.95255" lon="4.57008">
        <ele>369</ele>
        <time>2021-11-19T16:01:37Z</time>
      </trkpt>
      <trkpt lat="45.95263" lon="4.5706">
        <ele>370</ele>
        <time>2021-11-19T16:01:46Z</time>
      </trkpt>
      <trkpt lat="45.9528" lon="4.5708">
        <ele>369</ele>
        <time>2021-11-19T16:01:51Z</time>
      </trkpt>
      <trkpt lat="45.95299" lon="4.57083">
        <ele>367</ele>
        <time>2021-11-19T16:01:56Z</time>
      </trkpt>
      <trkpt lat="45.95324" lon="4.57091">
        <ele>365</ele>
        <time>2021-11-19T16:02:02Z</time>
      </trkpt>
      <trkpt lat="45.95372" lon="4.57126">
        <ele>366</ele>
        <time>2021-11-19T16:02:14Z</time>
      </trkpt>
      <trkpt lat="45.9543" lon="4.57241">
        <ele>368</ele>
        <time>2021-11-19T16:02:37Z</time>
      </trkpt>
      <trkpt lat="45.95454" lon="4.57282">
        <ele>369</ele>
        <time>2021-11-19T16:02:46Z</time>
      </trkpt>
      <trkpt lat="45.95472" lon="4.57303">
        <ele>369</ele>
        <time>2021-11-19T16:02:51Z</time>
      </trkpt>
      <trkpt lat="45.95493" lon="4.57313">
        <ele>367</ele>
        <time>2021-11-19T16:02:56Z</time>
      </trkpt>
      <trkpt lat="45.95551" lon="4.57331">
        <ele>369</ele>
        <time>2021-11-19T16:03:10Z</time>
      </trkpt>
      <trkpt lat="45.95537" lon="4.57357">
        <ele>371</ele>
        <time>2021-11-19T16:03:16Z</time>
      </trkpt>
      <trkpt lat="45.95488" lon="4.57474">
        <ele>384</ele>
        <time>2021-11-19T16:03:38Z</time>
      </trkpt>
      <trkpt lat="45.9545" lon="4.5753">
        <ele>395</ele>
        <time>2021-11-19T16:03:51Z</time>
      </trkpt>
      <trkpt lat="45.9544" lon="4.57565">
        <ele>400</ele>
        <time>2021-11-19T16:03:57Z</time>
      </trkpt>
      <trkpt lat="45.9544" lon="4.57579">
        <ele>402</ele>
        <time>2021-11-19T16:03:59Z</time>
      </trkpt>
      <trkpt lat="45.95437" lon="4.57586">
        <ele>403</ele>
        <time>2021-11-19T16:04:00Z</time>
      </trkpt>
      <trkpt lat="45.95428" lon="4.57586">
        <ele>405</ele>
        <time>2021-11-19T16:04:02Z</time>
      </trkpt>
      <trkpt lat="45.95416" lon="4.5757">
        <ele>404</ele>
        <time>2021-11-19T16:04:06Z</time>
      </trkpt>
      <trkpt lat="45.95383" lon="4.57567">
        <ele>407</ele>
        <time>2021-11-19T16:04:14Z</time>
      </trkpt>
      <trkpt lat="45.95348" lon="4.57568">
        <ele>411</ele>
        <time>2021-11-19T16:04:22Z</time>
      </trkpt>
      <trkpt lat="45.95331" lon="4.57563">
        <ele>412</ele>
        <time>2021-11-19T16:04:26Z</time>
      </trkpt>
      <trkpt lat="45.95321" lon="4.57555">
        <ele>414</ele>
        <time>2021-11-19T16:04:29Z</time>
      </trkpt>
      <trkpt lat="45.95318" lon="4.57538">
        <ele>413</ele>
        <time>2021-11-19T16:04:32Z</time>
      </trkpt>
      <trkpt lat="45.95301" lon="4.57545">
        <ele>418</ele>
        <time>2021-11-19T16:04:36Z</time>
      </trkpt>
      <trkpt lat="45.95297" lon="4.57552">
        <ele>420</ele>
        <time>2021-11-19T16:04:37Z</time>
      </trkpt>
      <trkpt lat="45.95288" lon="4.57553">
        <ele>422</ele>
        <time>2021-11-19T16:04:39Z</time>
      </trkpt>
      <trkpt lat="45.95264" lon="4.57545">
        <ele>428</ele>
        <time>2021-11-19T16:04:45Z</time>
      </trkpt>
      <trkpt lat="45.95252" lon="4.57552">
        <ele>431</ele>
        <time>2021-11-19T16:04:48Z</time>
      </trkpt>
      <trkpt lat="45.95232" lon="4.5757">
        <ele>436</ele>
        <time>2021-11-19T16:04:54Z</time>
      </trkpt>
      <trkpt lat="45.95209" lon="4.57605">
        <ele>441</ele>
        <time>2021-11-19T16:05:01Z</time>
      </trkpt>
      <trkpt lat="45.9519" lon="4.57614">
        <ele>443</ele>
        <time>2021-11-19T16:05:06Z</time>
      </trkpt>
      <trkpt lat="45.95157" lon="4.57644">
        <ele>445</ele>
        <time>2021-11-19T16:05:15Z</time>
      </trkpt>
      <trkpt lat="45.95071" lon="4.57735">
        <ele>455</ele>
        <time>2021-11-19T16:05:40Z</time>
      </trkpt>
      <trkpt lat="45.95001" lon="4.57773">
        <ele>458</ele>
        <time>2021-11-19T16:05:58Z</time>
      </trkpt>
      <trkpt lat="45.94949" lon="4.57791">
        <ele>464</ele>
        <time>2021-11-19T16:06:10Z</time>
      </trkpt>
      <trkpt lat="45.94912" lon="4.57798">
        <ele>467</ele>
        <time>2021-11-19T16:06:19Z</time>
      </trkpt>
      <trkpt lat="45.9477" lon="4.57831">
        <ele>476</ele>
        <time>2021-11-19T16:06:52Z</time>
      </trkpt>
      <trkpt lat="45.94735" lon="4.57842">
        <ele>479</ele>
        <time>2021-11-19T16:07:01Z</time>
      </trkpt>
      <trkpt lat="45.94716" lon="4.57845">
        <ele>480</ele>
        <time>2021-11-19T16:07:05Z</time>
      </trkpt>
      <trkpt lat="45.94712" lon="4.57872">
        <ele>482</ele>
        <time>2021-11-19T16:07:10Z</time>
      </trkpt>
      <trkpt lat="45.94701" lon="4.57911">
        <ele>484</ele>
        <time>2021-11-19T16:07:17Z</time>
      </trkpt>
      <trkpt lat="45.94685" lon="4.57949">
        <ele>488</ele>
        <time>2021-11-19T16:07:24Z</time>
      </trkpt>
      <trkpt lat="45.94685" lon="4.58026">
        <ele>496</ele>
        <time>2021-11-19T16:07:36Z</time>
      </trkpt>
      <trkpt lat="45.94691" lon="4.5807">
        <ele>502</ele>
        <time>2021-11-19T16:07:44Z</time>
      </trkpt>
      <trkpt lat="45.94696" lon="4.58079">
        <ele>504</ele>
        <time>2021-11-19T16:07:45Z</time>
      </trkpt>
      <trkpt lat="45.94721" lon="4.58095">
        <ele>509</ele>
        <time>2021-11-19T16:07:52Z</time>
      </trkpt>
      <trkpt lat="45.9472" lon="4.58098">
        <ele>510</ele>
        <time>2021-11-19T16:07:52Z</time>
      </trkpt>
      <trkpt lat="45.94679" lon="4.58108">
        <ele>507</ele>
        <time>2021-11-19T16:08:02Z</time>
      </trkpt>
      <trkpt lat="45.94643" lon="4.58125">
        <ele>505</ele>
        <time>2021-11-19T16:08:11Z</time>
      </trkpt>
      <trkpt lat="45.94636" lon="4.58195">
        <ele>516</ele>
        <time>2021-11-19T16:08:22Z</time>
      </trkpt>
      <trkpt lat="45.94639" lon="4.58201">
        <ele>517</ele>
        <time>2021-11-19T16:08:24Z</time>
      </trkpt>
      <trkpt lat="45.94665" lon="4.58207">
        <ele>521</ele>
        <time>2021-11-19T16:08:30Z</time>
      </trkpt>
      <trkpt lat="45.9467" lon="4.58212">
        <ele>522</ele>
        <time>2021-11-19T16:08:31Z</time>
      </trkpt>
      <trkpt lat="45.94672" lon="4.58218">
        <ele>524</ele>
        <time>2021-11-19T16:08:32Z</time>
      </trkpt>
      <trkpt lat="45.94673" lon="4.58226">
        <ele>525</ele>
        <time>2021-11-19T16:08:34Z</time>
      </trkpt>
      <trkpt lat="45.94663" lon="4.58277">
        <ele>525</ele>
        <time>2021-11-19T16:08:42Z</time>
      </trkpt>
      <trkpt lat="45.94745" lon="4.58315">
        <ele>527</ele>
        <time>2021-11-19T16:09:02Z</time>
      </trkpt>
      <trkpt lat="45.94786" lon="4.58341">
        <ele>526</ele>
        <time>2021-11-19T16:09:13Z</time>
      </trkpt>
      <trkpt lat="45.94826" lon="4.58358">
        <ele>527</ele>
        <time>2021-11-19T16:09:23Z</time>
      </trkpt>
      <trkpt lat="45.9486" lon="4.58367">
        <ele>527</ele>
        <time>2021-11-19T16:09:31Z</time>
      </trkpt>
      <trkpt lat="45.94895" lon="4.5837">
        <ele>527</ele>
        <time>2021-11-19T16:09:39Z</time>
      </trkpt>
      <trkpt lat="45.94899" lon="4.58383">
        <ele>527</ele>
        <time>2021-11-19T16:09:41Z</time>
      </trkpt>
      <trkpt lat="45.94907" lon="4.58472">
        <ele>525</ele>
        <time>2021-11-19T16:09:56Z</time>
      </trkpt>
      <trkpt lat="45.94947" lon="4.58582">
        <ele>523</ele>
        <time>2021-11-19T16:10:16Z</time>
      </trkpt>
      <trkpt lat="45.94956" lon="4.58629">
        <ele>523</ele>
        <time>2021-11-19T16:10:24Z</time>
      </trkpt>
      <trkpt lat="45.94954" lon="4.58674">
        <ele>522</ele>
        <time>2021-11-19T16:10:31Z</time>
      </trkpt>
      <trkpt lat="45.94944" lon="4.58709">
        <ele>522</ele>
        <time>2021-11-19T16:10:37Z</time>
      </trkpt>
      <trkpt lat="45.94893" lon="4.58782">
        <ele>521</ele>
        <time>2021-11-19T16:10:54Z</time>
      </trkpt>
      <trkpt lat="45.94863" lon="4.58832">
        <ele>524</ele>
        <time>2021-11-19T16:11:05Z</time>
      </trkpt>
      <trkpt lat="45.94834" lon="4.58913">
        <ele>531</ele>
        <time>2021-11-19T16:11:20Z</time>
      </trkpt>
      <trkpt lat="45.9484" lon="4.5897">
        <ele>533</ele>
        <time>2021-11-19T16:11:29Z</time>
      </trkpt>
      <trkpt lat="45.94875" lon="4.5903">
        <ele>538</ele>
        <time>2021-11-19T16:11:42Z</time>
      </trkpt>
      <trkpt lat="45.9488" lon="4.59062">
        <ele>540</ele>
        <time>2021-11-19T16:11:47Z</time>
      </trkpt>
      <trkpt lat="45.94877" lon="4.59103">
        <ele>544</ele>
        <time>2021-11-19T16:11:54Z</time>
      </trkpt>
      <trkpt lat="45.94885" lon="4.59141">
        <ele>548</ele>
        <time>2021-11-19T16:12:00Z</time>
      </trkpt>
      <trkpt lat="45.94888" lon="4.59176">
        <ele>552</ele>
        <time>2021-11-19T16:12:06Z</time>
      </trkpt>
      <trkpt lat="45.9488" lon="4.59248">
        <ele>557</ele>
        <time>2021-11-19T16:12:18Z</time>
      </trkpt>
      <trkpt lat="45.9488" lon="4.59267">
        <ele>557</ele>
        <time>2021-11-19T16:12:21Z</time>
      </trkpt>
      <trkpt lat="45.94897" lon="4.59304">
        <ele>561</ele>
        <time>2021-11-19T16:12:28Z</time>
      </trkpt>
      <trkpt lat="45.94928" lon="4.59356">
        <ele>564</ele>
        <time>2021-11-19T16:12:39Z</time>
      </trkpt>
      <trkpt lat="45.94934" lon="4.59361">
        <ele>564</ele>
        <time>2021-11-19T16:12:41Z</time>
      </trkpt>
      <trkpt lat="45.94942" lon="4.59362">
        <ele>565</ele>
        <time>2021-11-19T16:12:43Z</time>
      </trkpt>
      <trkpt lat="45.94956" lon="4.59404">
        <ele>563</ele>
        <time>2021-11-19T16:12:50Z</time>
      </trkpt>
      <trkpt lat="45.94975" lon="4.59438">
        <ele>563</ele>
        <time>2021-11-19T16:12:57Z</time>
      </trkpt>
      <trkpt lat="45.94994" lon="4.59485">
        <ele>561</ele>
        <time>2021-11-19T16:13:06Z</time>
      </trkpt>
      <trkpt lat="45.95001" lon="4.59753">
        <ele>553</ele>
        <time>2021-11-19T16:13:50Z</time>
      </trkpt>
      <trkpt lat="45.95009" lon="4.59803">
        <ele>554</ele>
        <time>2021-11-19T16:13:58Z</time>
      </trkpt>
      <trkpt lat="45.9501" lon="4.59869">
        <ele>554</ele>
        <time>2021-11-19T16:14:09Z</time>
      </trkpt>
      <trkpt lat="45.95009" lon="4.60054">
        <ele>557</ele>
        <time>2021-11-19T16:14:39Z</time>
      </trkpt>
      <trkpt lat="45.95004" lon="4.60102">
        <ele>558</ele>
        <time>2021-11-19T16:14:47Z</time>
      </trkpt>
      <trkpt lat="45.94997" lon="4.60133">
        <ele>559</ele>
        <time>2021-11-19T16:14:52Z</time>
      </trkpt>
      <trkpt lat="45.95007" lon="4.60155">
        <ele>563</ele>
        <time>2021-11-19T16:14:56Z</time>
      </trkpt>
      <trkpt lat="45.95016" lon="4.60221">
        <ele>570</ele>
        <time>2021-11-19T16:15:07Z</time>
      </trkpt>
      <trkpt lat="45.9503" lon="4.60262">
        <ele>573</ele>
        <time>2021-11-19T16:15:14Z</time>
      </trkpt>
      <trkpt lat="45.95015" lon="4.60273">
        <ele>572</ele>
        <time>2021-11-19T16:15:18Z</time>
      </trkpt>
      <trkpt lat="45.95006" lon="4.60275">
        <ele>572</ele>
        <time>2021-11-19T16:15:21Z</time>
      </trkpt>
      <trkpt lat="45.95004" lon="4.60284">
        <ele>572</ele>
        <time>2021-11-19T16:15:22Z</time>
      </trkpt>
      <trkpt lat="45.94964" lon="4.60348">
        <ele>569</ele>
        <time>2021-11-19T16:15:36Z</time>
      </trkpt>
      <trkpt lat="45.94922" lon="4.60406">
        <ele>572</ele>
        <time>2021-11-19T16:15:50Z</time>
      </trkpt>
      <trkpt lat="45.94894" lon="4.60455">
        <ele>569</ele>
        <time>2021-11-19T16:16:00Z</time>
      </trkpt>
      <trkpt lat="45.94868" lon="4.60489">
        <ele>568</ele>
        <time>2021-11-19T16:16:08Z</time>
      </trkpt>
      <trkpt lat="45.9484" lon="4.60542">
        <ele>571</ele>
        <time>2021-11-19T16:16:19Z</time>
      </trkpt>
      <trkpt lat="45.9483" lon="4.60554">
        <ele>572</ele>
        <time>2021-11-19T16:16:22Z</time>
      </trkpt>
      <trkpt lat="45.9482" lon="4.6058">
        <ele>573</ele>
        <time>2021-11-19T16:16:27Z</time>
      </trkpt>
      <trkpt lat="45.94816" lon="4.60605">
        <ele>573</ele>
        <time>2021-11-19T16:16:31Z</time>
      </trkpt>
      <trkpt lat="45.94812" lon="4.60635">
        <ele>573</ele>
        <time>2021-11-19T16:16:36Z</time>
      </trkpt>
      <trkpt lat="45.94815" lon="4.6066">
        <ele>574</ele>
        <time>2021-11-19T16:16:40Z</time>
      </trkpt>
      <trkpt lat="45.94855" lon="4.6078">
        <ele>579</ele>
        <time>2021-11-19T16:17:02Z</time>
      </trkpt>
      <trkpt lat="45.9486" lon="4.60812">
        <ele>579</ele>
        <time>2021-11-19T16:17:07Z</time>
      </trkpt>
      <trkpt lat="45.94873" lon="4.60867">
        <ele>576</ele>
        <time>2021-11-19T16:17:16Z</time>
      </trkpt>
      <trkpt lat="45.94875" lon="4.60893">
        <ele>575</ele>
        <time>2021-11-19T16:17:21Z</time>
      </trkpt>
      <trkpt lat="45.94874" lon="4.60927">
        <ele>573</ele>
        <time>2021-11-19T16:17:26Z</time>
      </trkpt>
      <trkpt lat="45.94869" lon="4.6095">
        <ele>571</ele>
        <time>2021-11-19T16:17:30Z</time>
      </trkpt>
      <trkpt lat="45.94827" lon="4.6105">
        <ele>565</ele>
        <time>2021-11-19T16:17:49Z</time>
      </trkpt>
      <trkpt lat="45.94812" lon="4.61094">
        <ele>562</ele>
        <time>2021-11-19T16:17:57Z</time>
      </trkpt>
      <trkpt lat="45.94807" lon="4.61118">
        <ele>560</ele>
        <time>2021-11-19T16:18:01Z</time>
      </trkpt>
      <trkpt lat="45.94779" lon="4.61185">
        <ele>555</ele>
        <time>2021-11-19T16:18:14Z</time>
      </trkpt>
      <trkpt lat="45.94728" lon="4.61276">
        <ele>548</ele>
        <time>2021-11-19T16:18:33Z</time>
      </trkpt>
      <trkpt lat="45.94716" lon="4.61291">
        <ele>546</ele>
        <time>2021-11-19T16:18:36Z</time>
      </trkpt>
      <trkpt lat="45.94722" lon="4.61308">
        <ele>543</ele>
        <time>2021-11-19T16:18:40Z</time>
      </trkpt>
      <trkpt lat="45.94796" lon="4.61313">
        <ele>534</ele>
        <time>2021-11-19T16:18:57Z</time>
      </trkpt>
      <trkpt lat="45.94811" lon="4.61325">
        <ele>529</ele>
        <time>2021-11-19T16:19:01Z</time>
      </trkpt>
      <trkpt lat="45.94821" lon="4.61353">
        <ele>524</ele>
        <time>2021-11-19T16:19:06Z</time>
      </trkpt>
      <trkpt lat="45.94839" lon="4.61383">
        <ele>517</ele>
        <time>2021-11-19T16:19:12Z</time>
      </trkpt>
      <trkpt lat="45.94851" lon="4.61436">
        <ele>509</ele>
        <time>2021-11-19T16:19:21Z</time>
      </trkpt>
      <trkpt lat="45.94847" lon="4.61458">
        <ele>507</ele>
        <time>2021-11-19T16:19:25Z</time>
      </trkpt>
      <trkpt lat="45.94833" lon="4.61465">
        <ele>506</ele>
        <time>2021-11-19T16:19:29Z</time>
      </trkpt>
      <trkpt lat="45.94782" lon="4.61481">
        <ele>507</ele>
        <time>2021-11-19T16:19:41Z</time>
      </trkpt>
      <trkpt lat="45.94765" lon="4.615">
        <ele>504</ele>
        <time>2021-11-19T16:19:46Z</time>
      </trkpt>
      <trkpt lat="45.94715" lon="4.61567">
        <ele>495</ele>
        <time>2021-11-19T16:20:02Z</time>
      </trkpt>
      <trkpt lat="45.94699" lon="4.61582">
        <ele>493</ele>
        <time>2021-11-19T16:20:06Z</time>
      </trkpt>
      <trkpt lat="45.94694" lon="4.61593">
        <ele>491</ele>
        <time>2021-11-19T16:20:08Z</time>
      </trkpt>
      <trkpt lat="45.94676" lon="4.61618">
        <ele>488</ele>
        <time>2021-11-19T16:20:14Z</time>
      </trkpt>
      <trkpt lat="45.9464" lon="4.61643">
        <ele>484</ele>
        <time>2021-11-19T16:20:24Z</time>
      </trkpt>
      <trkpt lat="45.94608" lon="4.61677">
        <ele>479</ele>
        <time>2021-11-19T16:20:33Z</time>
      </trkpt>
      <trkpt lat="45.94529" lon="4.61717">
        <ele>478</ele>
        <time>2021-11-19T16:20:52Z</time>
      </trkpt>
      <trkpt lat="45.94502" lon="4.61734">
        <ele>478</ele>
        <time>2021-11-19T16:20:59Z</time>
      </trkpt>
      <trkpt lat="45.94468" lon="4.61748">
        <ele>478</ele>
        <time>2021-11-19T16:21:08Z</time>
      </trkpt>
      <trkpt lat="45.94362" lon="4.61735">
        <ele>480</ele>
        <time>2021-11-19T16:21:32Z</time>
      </trkpt>
      <trkpt lat="45.94342" lon="4.61745">
        <ele>476</ele>
        <time>2021-11-19T16:21:37Z</time>
      </trkpt>
      <trkpt lat="45.9432" lon="4.61744">
        <ele>475</ele>
        <time>2021-11-19T16:21:43Z</time>
      </trkpt>
      <trkpt lat="45.94314" lon="4.61749">
        <ele>473</ele>
        <time>2021-11-19T16:21:44Z</time>
      </trkpt>
      <trkpt lat="45.94307" lon="4.61798">
        <ele>465</ele>
        <time>2021-11-19T16:21:52Z</time>
      </trkpt>
      <trkpt lat="45.943" lon="4.61802">
        <ele>464</ele>
        <time>2021-11-19T16:21:54Z</time>
      </trkpt>
      <trkpt lat="45.94183" lon="4.61788">
        <ele>460</ele>
        <time>2021-11-19T16:22:21Z</time>
      </trkpt>
      <trkpt lat="45.94135" lon="4.6178">
        <ele>462</ele>
        <time>2021-11-19T16:22:33Z</time>
      </trkpt>
      <trkpt lat="45.94129" lon="4.6179">
        <ele>460</ele>
        <time>2021-11-19T16:22:35Z</time>
      </trkpt>
      <trkpt lat="45.94126" lon="4.61809">
        <ele>458</ele>
        <time>2021-11-19T16:22:38Z</time>
      </trkpt>
      <trkpt lat="45.94113" lon="4.6181">
        <ele>458</ele>
        <time>2021-11-19T16:22:41Z</time>
      </trkpt>
      <trkpt lat="45.94097" lon="4.61807">
        <ele>459</ele>
        <time>2021-11-19T16:22:45Z</time>
      </trkpt>
      <trkpt lat="45.94081" lon="4.61798">
        <ele>460</ele>
        <time>2021-11-19T16:22:49Z</time>
      </trkpt>
      <trkpt lat="45.94063" lon="4.61784">
        <ele>461</ele>
        <time>2021-11-19T16:22:54Z</time>
      </trkpt>
      <trkpt lat="45.94035" lon="4.6174">
        <ele>464</ele>
        <time>2021-11-19T16:23:03Z</time>
      </trkpt>
      <trkpt lat="45.94012" lon="4.61713">
        <ele>463</ele>
        <time>2021-11-19T16:23:10Z</time>
      </trkpt>
      <trkpt lat="45.93993" lon="4.61667">
        <ele>463</ele>
        <time>2021-11-19T16:23:19Z</time>
      </trkpt>
      <trkpt lat="45.9396" lon="4.61628">
        <ele>456</ele>
        <time>2021-11-19T16:23:29Z</time>
      </trkpt>
      <trkpt lat="45.93943" lon="4.61604">
        <ele>452</ele>
        <time>2021-11-19T16:23:34Z</time>
      </trkpt>
      <trkpt lat="45.93927" lon="4.61587">
        <ele>450</ele>
        <time>2021-11-19T16:23:39Z</time>
      </trkpt>
      <trkpt lat="45.93897" lon="4.61603">
        <ele>446</ele>
        <time>2021-11-19T16:23:47Z</time>
      </trkpt>
      <trkpt lat="45.93857" lon="4.61632">
        <ele>440</ele>
        <time>2021-11-19T16:23:57Z</time>
      </trkpt>
      <trkpt lat="45.93854" lon="4.61619">
        <ele>440</ele>
        <time>2021-11-19T16:23:59Z</time>
      </trkpt>
      <trkpt lat="45.938" lon="4.61629">
        <ele>432</ele>
        <time>2021-11-19T16:24:12Z</time>
      </trkpt>
      <trkpt lat="45.9377" lon="4.61639">
        <ele>427</ele>
        <time>2021-11-19T16:24:19Z</time>
      </trkpt>
      <trkpt lat="45.93745" lon="4.6164">
        <ele>424</ele>
        <time>2021-11-19T16:24:25Z</time>
      </trkpt>
      <trkpt lat="45.93693" lon="4.61634">
        <ele>418</ele>
        <time>2021-11-19T16:24:37Z</time>
      </trkpt>
      <trkpt lat="45.93665" lon="4.61644">
        <ele>415</ele>
        <time>2021-11-19T16:24:44Z</time>
      </trkpt>
      <trkpt lat="45.93642" lon="4.6164">
        <ele>412</ele>
        <time>2021-11-19T16:24:49Z</time>
      </trkpt>
      <trkpt lat="45.93611" lon="4.61629">
        <ele>407</ele>
        <time>2021-11-19T16:24:57Z</time>
      </trkpt>
      <trkpt lat="45.93592" lon="4.61626">
        <ele>404</ele>
        <time>2021-11-19T16:25:01Z</time>
      </trkpt>
      <trkpt lat="45.93575" lon="4.61627">
        <ele>401</ele>
        <time>2021-11-19T16:25:05Z</time>
      </trkpt>
      <trkpt lat="45.93556" lon="4.61609">
        <ele>397</ele>
        <time>2021-11-19T16:25:11Z</time>
      </trkpt>
      <trkpt lat="45.93552" lon="4.61587">
        <ele>395</ele>
        <time>2021-11-19T16:25:14Z</time>
      </trkpt>
      <trkpt lat="45.93556" lon="4.61553">
        <ele>392</ele>
        <time>2021-11-19T16:25:20Z</time>
      </trkpt>
      <trkpt lat="45.93554" lon="4.61533">
        <ele>390</ele>
        <time>2021-11-19T16:25:23Z</time>
      </trkpt>
      <trkpt lat="45.93569" lon="4.61441">
        <ele>384</ele>
        <time>2021-11-19T16:25:38Z</time>
      </trkpt>
      <trkpt lat="45.93577" lon="4.61424">
        <ele>383</ele>
        <time>2021-11-19T16:25:42Z</time>
      </trkpt>
      <trkpt lat="45.93586" lon="4.6137">
        <ele>383</ele>
        <time>2021-11-19T16:25:51Z</time>
      </trkpt>
      <trkpt lat="45.93585" lon="4.61356">
        <ele>383</ele>
        <time>2021-11-19T16:25:53Z</time>
      </trkpt>
      <trkpt lat="45.93571" lon="4.61346">
        <ele>382</ele>
        <time>2021-11-19T16:25:57Z</time>
      </trkpt>
      <trkpt lat="45.93486" lon="4.61311">
        <ele>389</ele>
        <time>2021-11-19T16:26:17Z</time>
      </trkpt>
      <trkpt lat="45.93451" lon="4.61324">
        <ele>391</ele>
        <time>2021-11-19T16:26:26Z</time>
      </trkpt>
      <trkpt lat="45.93443" lon="4.61324">
        <ele>391</ele>
        <time>2021-11-19T16:26:28Z</time>
      </trkpt>
      <trkpt lat="45.93426" lon="4.61332">
        <ele>391</ele>
        <time>2021-11-19T16:26:32Z</time>
      </trkpt>
      <trkpt lat="45.93407" lon="4.61336">
        <ele>392</ele>
        <time>2021-11-19T16:26:36Z</time>
      </trkpt>
      <trkpt lat="45.93395" lon="4.61324">
        <ele>395</ele>
        <time>2021-11-19T16:26:40Z</time>
      </trkpt>
      <trkpt lat="45.93382" lon="4.61302">
        <ele>400</ele>
        <time>2021-11-19T16:26:45Z</time>
      </trkpt>
      <trkpt lat="45.93367" lon="4.61293">
        <ele>403</ele>
        <time>2021-11-19T16:26:48Z</time>
      </trkpt>
      <trkpt lat="45.93353" lon="4.61296">
        <ele>403</ele>
        <time>2021-11-19T16:26:52Z</time>
      </trkpt>
      <trkpt lat="45.93344" lon="4.61304">
        <ele>402</ele>
        <time>2021-11-19T16:26:54Z</time>
      </trkpt>
      <trkpt lat="45.933" lon="4.61324">
        <ele>402</ele>
        <time>2021-11-19T16:27:05Z</time>
      </trkpt>
      <trkpt lat="45.93261" lon="4.61323">
        <ele>405</ele>
        <time>2021-11-19T16:27:14Z</time>
      </trkpt>
      <trkpt lat="45.93232" lon="4.61331">
        <ele>405</ele>
        <time>2021-11-19T16:27:21Z</time>
      </trkpt>
      <trkpt lat="45.93067" lon="4.61358">
        <ele>410</ele>
        <time>2021-11-19T16:28:00Z</time>
      </trkpt>
      <trkpt lat="45.93039" lon="4.61351">
        <ele>414</ele>
        <time>2021-11-19T16:28:06Z</time>
      </trkpt>
      <trkpt lat="45.93009" lon="4.61326">
        <ele>420</ele>
        <time>2021-11-19T16:28:14Z</time>
      </trkpt>
      <trkpt lat="45.9299" lon="4.61323">
        <ele>422</ele>
        <time>2021-11-19T16:28:19Z</time>
      </trkpt>
      <trkpt lat="45.9295" lon="4.61328">
        <ele>425</ele>
        <time>2021-11-19T16:28:28Z</time>
      </trkpt>
      <trkpt lat="45.92899" lon="4.6132">
        <ele>428</ele>
        <time>2021-11-19T16:28:40Z</time>
      </trkpt>
      <trkpt lat="45.92866" lon="4.61306">
        <ele>428</ele>
        <time>2021-11-19T16:28:48Z</time>
      </trkpt>
      <trkpt lat="45.92822" lon="4.61276">
        <ele>429</ele>
        <time>2021-11-19T16:29:00Z</time>
      </trkpt>
      <trkpt lat="45.92756" lon="4.61216">
        <ele>431</ele>
        <time>2021-11-19T16:29:18Z</time>
      </trkpt>
      <trkpt lat="45.92704" lon="4.61164">
        <ele>429</ele>
        <time>2021-11-19T16:29:33Z</time>
      </trkpt>
      <trkpt lat="45.92651" lon="4.61106">
        <ele>425</ele>
        <time>2021-11-19T16:29:48Z</time>
      </trkpt>
      <trkpt lat="45.92622" lon="4.61081">
        <ele>423</ele>
        <time>2021-11-19T16:29:56Z</time>
      </trkpt>
      <trkpt lat="45.926" lon="4.61075">
        <ele>421</ele>
        <time>2021-11-19T16:30:01Z</time>
      </trkpt>
      <trkpt lat="45.92589" lon="4.61076">
        <ele>420</ele>
        <time>2021-11-19T16:30:04Z</time>
      </trkpt>
      <trkpt lat="45.92557" lon="4.6112">
        <ele>417</ele>
        <time>2021-11-19T16:30:14Z</time>
      </trkpt>
      <trkpt lat="45.92549" lon="4.61123">
        <ele>417</ele>
        <time>2021-11-19T16:30:16Z</time>
      </trkpt>
      <trkpt lat="45.92542" lon="4.61121">
        <ele>417</ele>
        <time>2021-11-19T16:30:18Z</time>
      </trkpt>
      <trkpt lat="45.92525" lon="4.61083">
        <ele>419</ele>
        <time>2021-11-19T16:30:25Z</time>
      </trkpt>
      <trkpt lat="45.925" lon="4.6101">
        <ele>417</ele>
        <time>2021-11-19T16:30:38Z</time>
      </trkpt>
      <trkpt lat="45.92492" lon="4.60995">
        <ele>417</ele>
        <time>2021-11-19T16:30:41Z</time>
      </trkpt>
      <trkpt lat="45.92487" lon="4.60991">
        <ele>417</ele>
        <time>2021-11-19T16:30:43Z</time>
      </trkpt>
      <trkpt lat="45.92482" lon="4.60991">
        <ele>417</ele>
        <time>2021-11-19T16:30:44Z</time>
      </trkpt>
      <trkpt lat="45.92447" lon="4.61015">
        <ele>418</ele>
        <time>2021-11-19T16:30:53Z</time>
      </trkpt>
      <trkpt lat="45.92423" lon="4.6105">
        <ele>420</ele>
        <time>2021-11-19T16:31:01Z</time>
      </trkpt>
      <trkpt lat="45.92415" lon="4.61073">
        <ele>421</ele>
        <time>2021-11-19T16:31:05Z</time>
      </trkpt>
      <trkpt lat="45.92389" lon="4.61119">
        <ele>422</ele>
        <time>2021-11-19T16:31:15Z</time>
      </trkpt>
      <trkpt lat="45.92358" lon="4.612">
        <ele>416</ele>
        <time>2021-11-19T16:31:30Z</time>
      </trkpt>
      <trkpt lat="45.92326" lon="4.61231">
        <ele>414</ele>
        <time>2021-11-19T16:31:39Z</time>
      </trkpt>
      <trkpt lat="45.92314" lon="4.61253">
        <ele>413</ele>
        <time>2021-11-19T16:31:43Z</time>
      </trkpt>
      <trkpt lat="45.92281" lon="4.61301">
        <ele>412</ele>
        <time>2021-11-19T16:31:54Z</time>
      </trkpt>
      <trkpt lat="45.9224" lon="4.61398">
        <ele>408</ele>
        <time>2021-11-19T16:32:13Z</time>
      </trkpt>
      <trkpt lat="45.92224" lon="4.61428">
        <ele>407</ele>
        <time>2021-11-19T16:32:19Z</time>
      </trkpt>
      <trkpt lat="45.92205" lon="4.61455">
        <ele>406</ele>
        <time>2021-11-19T16:32:25Z</time>
      </trkpt>
      <trkpt lat="45.92147" lon="4.61533">
        <ele>398</ele>
        <time>2021-11-19T16:32:44Z</time>
      </trkpt>
      <trkpt lat="45.92132" lon="4.61544">
        <ele>397</ele>
        <time>2021-11-19T16:32:48Z</time>
      </trkpt>
      <trkpt lat="45.92099" lon="4.61559">
        <ele>395</ele>
        <time>2021-11-19T16:32:56Z</time>
      </trkpt>
      <trkpt lat="45.92084" lon="4.61569">
        <ele>393</ele>
        <time>2021-11-19T16:33:00Z</time>
      </trkpt>
      <trkpt lat="45.92062" lon="4.61596">
        <ele>390</ele>
        <time>2021-11-19T16:33:06Z</time>
      </trkpt>
      <trkpt lat="45.92044" lon="4.6163">
        <ele>387</ele>
        <time>2021-11-19T16:33:13Z</time>
      </trkpt>
      <trkpt lat="45.92027" lon="4.6165">
        <ele>386</ele>
        <time>2021-11-19T16:33:18Z</time>
      </trkpt>
      <trkpt lat="45.92011" lon="4.61654">
        <ele>386</ele>
        <time>2021-11-19T16:33:22Z</time>
      </trkpt>
      <trkpt lat="45.91999" lon="4.6167">
        <ele>385</ele>
        <time>2021-11-19T16:33:26Z</time>
      </trkpt>
      <trkpt lat="45.91985" lon="4.61695">
        <ele>381</ele>
        <time>2021-11-19T16:33:31Z</time>
      </trkpt>
      <trkpt lat="45.91977" lon="4.6173">
        <ele>377</ele>
        <time>2021-11-19T16:33:37Z</time>
      </trkpt>
      <trkpt lat="45.91973" lon="4.6177">
        <ele>373</ele>
        <time>2021-11-19T16:33:44Z</time>
      </trkpt>
      <trkpt lat="45.91947" lon="4.61814">
        <ele>370</ele>
        <time>2021-11-19T16:33:53Z</time>
      </trkpt>
      <trkpt lat="45.91924" lon="4.61845">
        <ele>367</ele>
        <time>2021-11-19T16:34:01Z</time>
      </trkpt>
      <trkpt lat="45.91896" lon="4.61876">
        <ele>365</ele>
        <time>2021-11-19T16:34:09Z</time>
      </trkpt>
      <trkpt lat="45.91853" lon="4.61902">
        <ele>361</ele>
        <time>2021-11-19T16:34:20Z</time>
      </trkpt>
      <trkpt lat="45.91828" lon="4.61922">
        <ele>359</ele>
        <time>2021-11-19T16:34:26Z</time>
      </trkpt>
      <trkpt lat="45.91778" lon="4.61951">
        <ele>355</ele>
        <time>2021-11-19T16:34:39Z</time>
      </trkpt>
      <trkpt lat="45.91774" lon="4.61956">
        <ele>354</ele>
        <time>2021-11-19T16:34:40Z</time>
      </trkpt>
      <trkpt lat="45.91771" lon="4.61971">
        <ele>352</ele>
        <time>2021-11-19T16:34:43Z</time>
      </trkpt>
      <trkpt lat="45.91827" lon="4.62023">
        <ele>350</ele>
        <time>2021-11-19T16:34:58Z</time>
      </trkpt>
      <trkpt lat="45.91854" lon="4.62052">
        <ele>349</ele>
        <time>2021-11-19T16:35:06Z</time>
      </trkpt>
      <trkpt lat="45.91873" lon="4.62076">
        <ele>348</ele>
        <time>2021-11-19T16:35:12Z</time>
      </trkpt>
      <trkpt lat="45.91882" lon="4.62092">
        <ele>348</ele>
        <time>2021-11-19T16:35:15Z</time>
      </trkpt>
      <trkpt lat="45.91881" lon="4.62098">
        <ele>348</ele>
        <time>2021-11-19T16:35:16Z</time>
      </trkpt>
      <trkpt lat="45.9187" lon="4.62114">
        <ele>347</ele>
        <time>2021-11-19T16:35:20Z</time>
      </trkpt>
      <trkpt lat="45.91835" lon="4.62158">
        <ele>342</ele>
        <time>2021-11-19T16:35:31Z</time>
      </trkpt>
      <trkpt lat="45.91817" lon="4.62172">
        <ele>341</ele>
        <time>2021-11-19T16:35:36Z</time>
      </trkpt>
      <trkpt lat="45.91768" lon="4.62178">
        <ele>340</ele>
        <time>2021-11-19T16:35:47Z</time>
      </trkpt>
      <trkpt lat="45.91724" lon="4.62187">
        <ele>338</ele>
        <time>2021-11-19T16:35:58Z</time>
      </trkpt>
      <trkpt lat="45.91677" lon="4.62191">
        <ele>337</ele>
        <time>2021-11-19T16:36:09Z</time>
      </trkpt>
      <trkpt lat="45.91622" lon="4.62201">
        <ele>337</ele>
        <time>2021-11-19T16:36:22Z</time>
      </trkpt>
      <trkpt lat="45.91599" lon="4.62211">
        <ele>337</ele>
        <time>2021-11-19T16:36:27Z</time>
      </trkpt>
      <trkpt lat="45.91483" lon="4.62306">
        <ele>337</ele>
        <time>2021-11-19T16:36:58Z</time>
      </trkpt>
      <trkpt lat="45.91432" lon="4.62342">
        <ele>338</ele>
        <time>2021-11-19T16:37:12Z</time>
      </trkpt>
      <trkpt lat="45.91407" lon="4.62353">
        <ele>338</ele>
        <time>2021-11-19T16:37:18Z</time>
      </trkpt>
      <trkpt lat="45.91367" lon="4.62366">
        <ele>336</ele>
        <time>2021-11-19T16:37:27Z</time>
      </trkpt>
      <trkpt lat="45.91361" lon="4.62364">
        <ele>335</ele>
        <time>2021-11-19T16:37:29Z</time>
      </trkpt>
      <trkpt lat="45.91358" lon="4.62347">
        <ele>335</ele>
        <time>2021-11-19T16:37:32Z</time>
      </trkpt>
      <trkpt lat="45.91373" lon="4.62262">
        <ele>336</ele>
        <time>2021-11-19T16:37:46Z</time>
      </trkpt>
      <trkpt lat="45.91384" lon="4.6211">
        <ele>338</ele>
        <time>2021-11-19T16:38:11Z</time>
      </trkpt>
      <trkpt lat="45.91397" lon="4.61986">
        <ele>345</ele>
        <time>2021-11-19T16:38:31Z</time>
      </trkpt>
      <trkpt lat="45.91413" lon="4.61921">
        <ele>351</ele>
        <time>2021-11-19T16:38:42Z</time>
      </trkpt>
      <trkpt lat="45.91434" lon="4.61859">
        <ele>356</ele>
        <time>2021-11-19T16:38:53Z</time>
      </trkpt>
      <trkpt lat="45.91433" lon="4.61846">
        <ele>357</ele>
        <time>2021-11-19T16:38:56Z</time>
      </trkpt>
      <trkpt lat="45.914" lon="4.61753">
        <ele>354</ele>
        <time>2021-11-19T16:39:12Z</time>
      </trkpt>
      <trkpt lat="45.91402" lon="4.61747">
        <ele>354</ele>
        <time>2021-11-19T16:39:14Z</time>
      </trkpt>
      <trkpt lat="45.91406" lon="4.61746">
        <ele>354</ele>
        <time>2021-11-19T16:39:15Z</time>
      </trkpt>
      <trkpt lat="45.9142" lon="4.61734">
        <ele>354</ele>
        <time>2021-11-19T16:39:18Z</time>
      </trkpt>
      <trkpt lat="45.91469" lon="4.61708">
        <ele>357</ele>
        <time>2021-11-19T16:39:31Z</time>
      </trkpt>
      <trkpt lat="45.91479" lon="4.61696">
        <ele>357</ele>
        <time>2021-11-19T16:39:34Z</time>
      </trkpt>
      <trkpt lat="45.91484" lon="4.61677">
        <ele>357</ele>
        <time>2021-11-19T16:39:37Z</time>
      </trkpt>
      <trkpt lat="45.91529" lon="4.61658">
        <ele>360</ele>
        <time>2021-11-19T16:39:48Z</time>
      </trkpt>
      <trkpt lat="45.9154" lon="4.61649">
        <ele>360</ele>
        <time>2021-11-19T16:39:51Z</time>
      </trkpt>
      <trkpt lat="45.91529" lon="4.61638">
        <ele>357</ele>
        <time>2021-11-19T16:39:54Z</time>
      </trkpt>
      <trkpt lat="45.91525" lon="4.6163">
        <ele>356</ele>
        <time>2021-11-19T16:39:55Z</time>
      </trkpt>
      <trkpt lat="45.91517" lon="4.61606">
        <ele>353</ele>
        <time>2021-11-19T16:40:00Z</time>
      </trkpt>
      <trkpt lat="45.91514" lon="4.61586">
        <ele>350</ele>
        <time>2021-11-19T16:40:03Z</time>
      </trkpt>
      <trkpt lat="45.91513" lon="4.61473">
        <ele>347</ele>
        <time>2021-11-19T16:40:22Z</time>
      </trkpt>
      <trkpt lat="45.91506" lon="4.61415">
        <ele>349</ele>
        <time>2021-11-19T16:40:31Z</time>
      </trkpt>
      <trkpt lat="45.91505" lon="4.61367">
        <ele>352</ele>
        <time>2021-11-19T16:40:39Z</time>
      </trkpt>
      <trkpt lat="45.91502" lon="4.6135">
        <ele>353</ele>
        <time>2021-11-19T16:40:42Z</time>
      </trkpt>
      <trkpt lat="45.91485" lon="4.61296">
        <ele>357</ele>
        <time>2021-11-19T16:40:51Z</time>
      </trkpt>
      <trkpt lat="45.91463" lon="4.61253">
        <ele>360</ele>
        <time>2021-11-19T16:41:00Z</time>
      </trkpt>
      <trkpt lat="45.91457" lon="4.61236">
        <ele>360</ele>
        <time>2021-11-19T16:41:03Z</time>
      </trkpt>
      <trkpt lat="45.91396" lon="4.61131">
        <ele>359</ele>
        <time>2021-11-19T16:41:25Z</time>
      </trkpt>
      <trkpt lat="45.91341" lon="4.60998">
        <ele>362</ele>
        <time>2021-11-19T16:41:50Z</time>
      </trkpt>
      <trkpt lat="45.91306" lon="4.60901">
        <ele>363</ele>
        <time>2021-11-19T16:42:08Z</time>
      </trkpt>
      <trkpt lat="45.91299" lon="4.60856">
        <ele>363</ele>
        <time>2021-11-19T16:42:16Z</time>
      </trkpt>
      <trkpt lat="45.91298" lon="4.60817">
        <ele>363</ele>
        <time>2021-11-19T16:42:22Z</time>
      </trkpt>
      <trkpt lat="45.91294" lon="4.60815">
        <ele>363</ele>
        <time>2021-11-19T16:42:23Z</time>
      </trkpt>
      <trkpt lat="45.91289" lon="4.60817">
        <ele>363</ele>
        <time>2021-11-19T16:42:24Z</time>
      </trkpt>
      <trkpt lat="45.91172" lon="4.60909">
        <ele>354</ele>
        <time>2021-11-19T16:42:55Z</time>
      </trkpt>
      <trkpt lat="45.91156" lon="4.60933">
        <ele>352</ele>
        <time>2021-11-19T16:43:01Z</time>
      </trkpt>
      <trkpt lat="45.91133" lon="4.60981">
        <ele>350</ele>
        <time>2021-11-19T16:43:10Z</time>
      </trkpt>
      <trkpt lat="45.91124" lon="4.60988">
        <ele>350</ele>
        <time>2021-11-19T16:43:13Z</time>
      </trkpt>
      <trkpt lat="45.91092" lon="4.60993">
        <ele>349</ele>
        <time>2021-11-19T16:43:20Z</time>
      </trkpt>
      <trkpt lat="45.9108" lon="4.61">
        <ele>348</ele>
        <time>2021-11-19T16:43:23Z</time>
      </trkpt>
      <trkpt lat="45.91063" lon="4.61027">
        <ele>346</ele>
        <time>2021-11-19T16:43:29Z</time>
      </trkpt>
      <trkpt lat="45.91047" lon="4.61078">
        <ele>343</ele>
        <time>2021-11-19T16:43:38Z</time>
      </trkpt>
      <trkpt lat="45.91038" lon="4.61095">
        <ele>341</ele>
        <time>2021-11-19T16:43:42Z</time>
      </trkpt>
      <trkpt lat="45.90959" lon="4.61182">
        <ele>329</ele>
        <time>2021-11-19T16:44:05Z</time>
      </trkpt>
      <trkpt lat="45.90939" lon="4.61211">
        <ele>326</ele>
        <time>2021-11-19T16:44:12Z</time>
      </trkpt>
      <trkpt lat="45.90886" lon="4.6133">
        <ele>314</ele>
        <time>2021-11-19T16:44:35Z</time>
      </trkpt>
      <trkpt lat="45.90856" lon="4.61372">
        <ele>308</ele>
        <time>2021-11-19T16:44:44Z</time>
      </trkpt>
      <trkpt lat="45.90785" lon="4.61407">
        <ele>304</ele>
        <time>2021-11-19T16:45:02Z</time>
      </trkpt>
      <trkpt lat="45.90717" lon="4.61453">
        <ele>302</ele>
        <time>2021-11-19T16:45:19Z</time>
      </trkpt>
      <trkpt lat="45.90638" lon="4.61488">
        <ele>297</ele>
        <time>2021-11-19T16:45:39Z</time>
      </trkpt>
      <trkpt lat="45.90603" lon="4.61511">
        <ele>295</ele>
        <time>2021-11-19T16:45:48Z</time>
      </trkpt>
      <trkpt lat="45.9055" lon="4.61532">
        <ele>294</ele>
        <time>2021-11-19T16:46:01Z</time>
      </trkpt>
      <trkpt lat="45.9053" lon="4.61535">
        <ele>295</ele>
        <time>2021-11-19T16:46:05Z</time>
      </trkpt>
      <trkpt lat="45.90515" lon="4.61543">
        <ele>294</ele>
        <time>2021-11-19T16:46:09Z</time>
      </trkpt>
      <trkpt lat="45.90505" lon="4.61533">
        <ele>296</ele>
        <time>2021-11-19T16:46:12Z</time>
      </trkpt>
      <trkpt lat="45.90486" lon="4.61527">
        <ele>296</ele>
        <time>2021-11-19T16:46:16Z</time>
      </trkpt>
      <trkpt lat="45.90461" lon="4.61511">
        <ele>298</ele>
        <time>2021-11-19T16:46:23Z</time>
      </trkpt>
      <trkpt lat="45.90452" lon="4.61497">
        <ele>299</ele>
        <time>2021-11-19T16:46:26Z</time>
      </trkpt>
      <trkpt lat="45.90445" lon="4.61472">
        <ele>301</ele>
        <time>2021-11-19T16:46:30Z</time>
      </trkpt>
      <trkpt lat="45.90441" lon="4.61427">
        <ele>303</ele>
        <time>2021-11-19T16:46:38Z</time>
      </trkpt>
      <trkpt lat="45.90437" lon="4.61408">
        <ele>304</ele>
        <time>2021-11-19T16:46:41Z</time>
      </trkpt>
      <trkpt lat="45.90426" lon="4.61388">
        <ele>305</ele>
        <time>2021-11-19T16:46:45Z</time>
      </trkpt>
      <trkpt lat="45.90406" lon="4.61335">
        <ele>308</ele>
        <time>2021-11-19T16:46:55Z</time>
      </trkpt>
      <trkpt lat="45.90388" lon="4.61333">
        <ele>308</ele>
        <time>2021-11-19T16:46:59Z</time>
      </trkpt>
      <trkpt lat="45.90337" lon="4.61346">
        <ele>305</ele>
        <time>2021-11-19T16:47:11Z</time>
      </trkpt>
      <trkpt lat="45.90326" lon="4.61342">
        <ele>304</ele>
        <time>2021-11-19T16:47:14Z</time>
      </trkpt>
      <trkpt lat="45.90302" lon="4.61319">
        <ele>303</ele>
        <time>2021-11-19T16:47:20Z</time>
      </trkpt>
      <trkpt lat="45.90284" lon="4.6129">
        <ele>304</ele>
        <time>2021-11-19T16:47:27Z</time>
      </trkpt>
      <trkpt lat="45.90228" lon="4.61166">
        <ele>304</ele>
        <time>2021-11-19T16:47:51Z</time>
      </trkpt>
      <trkpt lat="45.90177" lon="4.61088">
        <ele>303</ele>
        <time>2021-11-19T16:48:08Z</time>
      </trkpt>
      <trkpt lat="45.90144" lon="4.61029">
        <ele>302</ele>
        <time>2021-11-19T16:48:20Z</time>
      </trkpt>
      <trkpt lat="45.90129" lon="4.60966">
        <ele>302</ele>
        <time>2021-11-19T16:48:31Z</time>
      </trkpt>
      <trkpt lat="45.9012" lon="4.60952">
        <ele>302</ele>
        <time>2021-11-19T16:48:34Z</time>
      </trkpt>
      <trkpt lat="45.90089" lon="4.60925">
        <ele>302</ele>
        <time>2021-11-19T16:48:43Z</time>
      </trkpt>
      <trkpt lat="45.90078" lon="4.60904">
        <ele>302</ele>
        <time>2021-11-19T16:48:47Z</time>
      </trkpt>
      <trkpt lat="45.90072" lon="4.60877">
        <ele>302</ele>
        <time>2021-11-19T16:48:52Z</time>
      </trkpt>
      <trkpt lat="45.9006" lon="4.60856">
        <ele>302</ele>
        <time>2021-11-19T16:48:56Z</time>
      </trkpt>
      <trkpt lat="45.90043" lon="4.60843">
        <ele>301</ele>
        <time>2021-11-19T16:49:01Z</time>
      </trkpt>
      <trkpt lat="45.90048" lon="4.60776">
        <ele>302</ele>
        <time>2021-11-19T16:49:12Z</time>
      </trkpt>
      <trkpt lat="45.90045" lon="4.60766">
        <ele>302</ele>
        <time>2021-11-19T16:49:13Z</time>
      </trkpt>
      <trkpt lat="45.90038" lon="4.60766">
        <ele>302</ele>
        <time>2021-11-19T16:49:15Z</time>
      </trkpt>
      <trkpt lat="45.90002" lon="4.6078">
        <ele>300</ele>
        <time>2021-11-19T16:49:24Z</time>
      </trkpt>
      <trkpt lat="45.89984" lon="4.60782">
        <ele>299</ele>
        <time>2021-11-19T16:49:28Z</time>
      </trkpt>
      <trkpt lat="45.89949" lon="4.6078">
        <ele>298</ele>
        <time>2021-11-19T16:49:36Z</time>
      </trkpt>
      <trkpt lat="45.89904" lon="4.60785">
        <ele>296</ele>
        <time>2021-11-19T16:49:47Z</time>
      </trkpt>
      <trkpt lat="45.8972" lon="4.60824">
        <ele>290</ele>
        <time>2021-11-19T16:50:30Z</time>
      </trkpt>
      <trkpt lat="45.89576" lon="4.60851">
        <ele>282</ele>
        <time>2021-11-19T16:51:04Z</time>
      </trkpt>
      <trkpt lat="45.89523" lon="4.6086">
        <ele>280</ele>
        <time>2021-11-19T16:51:16Z</time>
      </trkpt>
      <trkpt lat="45.89514" lon="4.60856">
        <ele>280</ele>
        <time>2021-11-19T16:51:19Z</time>
      </trkpt>
      <trkpt lat="45.89509" lon="4.60846">
        <ele>281</ele>
        <time>2021-11-19T16:51:21Z</time>
      </trkpt>
      <trkpt lat="45.89496" lon="4.60778">
        <ele>281</ele>
        <time>2021-11-19T16:51:32Z</time>
      </trkpt>
      <trkpt lat="45.89472" lon="4.6071">
        <ele>277</ele>
        <time>2021-11-19T16:51:45Z</time>
      </trkpt>
      <trkpt lat="45.89451" lon="4.60676">
        <ele>274</ele>
        <time>2021-11-19T16:51:52Z</time>
      </trkpt>
      <trkpt lat="45.89494" lon="4.60627">
        <ele>275</ele>
        <time>2021-11-19T16:52:05Z</time>
      </trkpt>
      <trkpt lat="45.89469" lon="4.60558">
        <ele>272</ele>
        <time>2021-11-19T16:52:17Z</time>
      </trkpt>
      <trkpt lat="45.89473" lon="4.6043">
        <ele>275</ele>
        <time>2021-11-19T16:52:38Z</time>
      </trkpt>
      <trkpt lat="45.89468" lon="4.60372">
        <ele>278</ele>
        <time>2021-11-19T16:52:48Z</time>
      </trkpt>
      <trkpt lat="45.89461" lon="4.60327">
        <ele>280</ele>
        <time>2021-11-19T16:52:55Z</time>
      </trkpt>
      <trkpt lat="45.89454" lon="4.60306">
        <ele>280</ele>
        <time>2021-11-19T16:52:59Z</time>
      </trkpt>
      <trkpt lat="45.89454" lon="4.603">
        <ele>280</ele>
        <time>2021-11-19T16:53:00Z</time>
      </trkpt>
      <trkpt lat="45.8946" lon="4.60298">
        <ele>280</ele>
        <time>2021-11-19T16:53:01Z</time>
      </trkpt>
      <trkpt lat="45.89478" lon="4.60299">
        <ele>281</ele>
        <time>2021-11-19T16:53:06Z</time>
      </trkpt>
      <trkpt lat="45.89529" lon="4.60306">
        <ele>284</ele>
        <time>2021-11-19T16:53:18Z</time>
      </trkpt>
      <trkpt lat="45.89549" lon="4.60304">
        <ele>285</ele>
        <time>2021-11-19T16:53:22Z</time>
      </trkpt>
      <trkpt lat="45.89594" lon="4.60292">
        <ele>289</ele>
        <time>2021-11-19T16:53:33Z</time>
      </trkpt>
      <trkpt lat="45.89675" lon="4.60275">
        <ele>294</ele>
        <time>2021-11-19T16:53:52Z</time>
      </trkpt>
      <trkpt lat="45.8968" lon="4.6027">
        <ele>295</ele>
        <time>2021-11-19T16:53:53Z</time>
      </trkpt>
      <trkpt lat="45.89675" lon="4.60084">
        <ele>299</ele>
        <time>2021-11-19T16:54:24Z</time>
      </trkpt>
      <trkpt lat="45.89692" lon="4.6002">
        <ele>301</ele>
        <time>2021-11-19T16:54:35Z</time>
      </trkpt>
      <trkpt lat="45.89716" lon="4.59949">
        <ele>303</ele>
        <time>2021-11-19T16:54:48Z</time>
      </trkpt>
      <trkpt lat="45.89724" lon="4.59943">
        <ele>305</ele>
        <time>2021-11-19T16:54:50Z</time>
      </trkpt>
      <trkpt lat="45.89771" lon="4.59925">
        <ele>312</ele>
        <time>2021-11-19T16:55:01Z</time>
      </trkpt>
      <trkpt lat="45.89776" lon="4.59919">
        <ele>312</ele>
        <time>2021-11-19T16:55:03Z</time>
      </trkpt>
      <trkpt lat="45.89788" lon="4.59885">
        <ele>310</ele>
        <time>2021-11-19T16:55:09Z</time>
      </trkpt>
      <trkpt lat="45.89804" lon="4.59866">
        <ele>309</ele>
        <time>2021-11-19T16:55:14Z</time>
      </trkpt>
      <trkpt lat="45.8982" lon="4.59856">
        <ele>310</ele>
        <time>2021-11-19T16:55:18Z</time>
      </trkpt>
      <trkpt lat="45.89867" lon="4.5984">
        <ele>311</ele>
        <time>2021-11-19T16:55:29Z</time>
      </trkpt>
      <trkpt lat="45.89922" lon="4.59799">
        <ele>310</ele>
        <time>2021-11-19T16:55:44Z</time>
      </trkpt>
      <trkpt lat="45.89936" lon="4.59783">
        <ele>308</ele>
        <time>2021-11-19T16:55:48Z</time>
      </trkpt>
      <trkpt lat="45.89927" lon="4.59761">
        <ele>305</ele>
        <time>2021-11-19T16:55:52Z</time>
      </trkpt>
      <trkpt lat="45.89884" lon="4.59685">
        <ele>298</ele>
        <time>2021-11-19T16:56:08Z</time>
      </trkpt>
      <trkpt lat="45.89874" lon="4.59657">
        <ele>296</ele>
        <time>2021-11-19T16:56:13Z</time>
      </trkpt>
      <trkpt lat="45.89868" lon="4.59652">
        <ele>295</ele>
        <time>2021-11-19T16:56:15Z</time>
      </trkpt>
      <trkpt lat="45.89858" lon="4.59654">
        <ele>295</ele>
        <time>2021-11-19T16:56:17Z</time>
      </trkpt>
      <trkpt lat="45.89849" lon="4.5965">
        <ele>294</ele>
        <time>2021-11-19T16:56:19Z</time>
      </trkpt>
      <trkpt lat="45.89831" lon="4.5963">
        <ele>291</ele>
        <time>2021-11-19T16:56:24Z</time>
      </trkpt>
      <trkpt lat="45.89833" lon="4.59592">
        <ele>289</ele>
        <time>2021-11-19T16:56:31Z</time>
      </trkpt>
      <trkpt lat="45.89831" lon="4.59569">
        <ele>287</ele>
        <time>2021-11-19T16:56:34Z</time>
      </trkpt>
      <trkpt lat="45.89862" lon="4.59501">
        <ele>284</ele>
        <time>2021-11-19T16:56:48Z</time>
      </trkpt>
      <trkpt lat="45.89766" lon="4.59403">
        <ele>273</ele>
        <time>2021-11-19T16:57:15Z</time>
      </trkpt>
      <trkpt lat="45.89749" lon="4.5939">
        <ele>270</ele>
        <time>2021-11-19T16:57:20Z</time>
      </trkpt>
      <trkpt lat="45.89726" lon="4.59387">
        <ele>265</ele>
        <time>2021-11-19T16:57:25Z</time>
      </trkpt>
      <trkpt lat="45.89706" lon="4.5939">
        <ele>261</ele>
        <time>2021-11-19T16:57:30Z</time>
      </trkpt>
      <trkpt lat="45.89664" lon="4.59435">
        <ele>258</ele>
        <time>2021-11-19T16:57:42Z</time>
      </trkpt>
      <trkpt lat="45.8963" lon="4.59424">
        <ele>249</ele>
        <time>2021-11-19T16:57:50Z</time>
      </trkpt>
      <trkpt lat="45.89613" lon="4.59429">
        <ele>247</ele>
        <time>2021-11-19T16:57:54Z</time>
      </trkpt>
      <trkpt lat="45.89587" lon="4.59452">
        <ele>244</ele>
        <time>2021-11-19T16:58:01Z</time>
      </trkpt>
      <trkpt lat="45.8958" lon="4.59465">
        <ele>244</ele>
        <time>2021-11-19T16:58:04Z</time>
      </trkpt>
      <trkpt lat="45.89576" lon="4.59466">
        <ele>244</ele>
        <time>2021-11-19T16:58:05Z</time>
      </trkpt>
      <trkpt lat="45.89575" lon="4.59462">
        <ele>243</ele>
        <time>2021-11-19T16:58:06Z</time>
      </trkpt>
      <trkpt lat="45.89588" lon="4.59439">
        <ele>243</ele>
        <time>2021-11-19T16:58:10Z</time>
      </trkpt>
      <trkpt lat="45.89573" lon="4.59417">
        <ele>238</ele>
        <time>2021-11-19T16:58:15Z</time>
      </trkpt>
      <trkpt lat="45.89583" lon="4.59395">
        <ele>238</ele>
        <time>2021-11-19T16:58:20Z</time>
      </trkpt>
      <trkpt lat="45.89621" lon="4.59275">
        <ele>236</ele>
        <time>2021-11-19T16:58:41Z</time>
      </trkpt>
      <trkpt lat="45.8964" lon="4.59196">
        <ele>234</ele>
        <time>2021-11-19T16:58:55Z</time>
      </trkpt>
      <trkpt lat="45.89657" lon="4.59137">
        <ele>233</ele>
        <time>2021-11-19T16:59:05Z</time>
      </trkpt>
      <trkpt lat="45.89654" lon="4.59133">
        <ele>233</ele>
        <time>2021-11-19T16:59:06Z</time>
      </trkpt>
      <trkpt lat="45.89646" lon="4.59131">
        <ele>233</ele>
        <time>2021-11-19T16:59:08Z</time>
      </trkpt>
      <trkpt lat="45.89639" lon="4.59135">
        <ele>233</ele>
        <time>2021-11-19T16:59:10Z</time>
      </trkpt>
      <trkpt lat="45.89625" lon="4.59151">
        <ele>233</ele>
        <time>2021-11-19T16:59:14Z</time>
      </trkpt>
      <trkpt lat="45.89617" lon="4.59149">
        <ele>233</ele>
        <time>2021-11-19T16:59:16Z</time>
      </trkpt>
      <trkpt lat="45.89592" lon="4.59126">
        <ele>233</ele>
        <time>2021-11-19T16:59:23Z</time>
      </trkpt>
      <trkpt lat="45.89555" lon="4.5913">
        <ele>233</ele>
        <time>2021-11-19T16:59:31Z</time>
      </trkpt>
      <trkpt lat="45.89533" lon="4.59113">
        <ele>233</ele>
        <time>2021-11-19T16:59:37Z</time>
      </trkpt>
      <trkpt lat="45.8952" lon="4.59095">
        <ele>233</ele>
        <time>2021-11-19T16:59:41Z</time>
      </trkpt>
      <trkpt lat="45.89495" lon="4.59039">
        <ele>233</ele>
        <time>2021-11-19T16:59:52Z</time>
      </trkpt>
      <trkpt lat="45.89436" lon="4.58881">
        <ele>236</ele>
        <time>2021-11-19T17:00:21Z</time>
      </trkpt>
      <trkpt lat="45.89431" lon="4.58859">
        <ele>238</ele>
        <time>2021-11-19T17:00:25Z</time>
      </trkpt>
      <trkpt lat="45.89425" lon="4.58849">
        <ele>239</ele>
        <time>2021-11-19T17:00:27Z</time>
      </trkpt>
      <trkpt lat="45.89415" lon="4.58847">
        <ele>240</ele>
        <time>2021-11-19T17:00:30Z</time>
      </trkpt>
      <trkpt lat="45.89376" lon="4.5886">
        <ele>242</ele>
        <time>2021-11-19T17:00:39Z</time>
      </trkpt>
      <trkpt lat="45.89365" lon="4.58866">
        <ele>243</ele>
        <time>2021-11-19T17:00:42Z</time>
      </trkpt>
      <trkpt lat="45.89362" lon="4.5887">
        <ele>243</ele>
        <time>2021-11-19T17:00:43Z</time>
      </trkpt>
      <trkpt lat="45.89353" lon="4.58863">
        <ele>244</ele>
        <time>2021-11-19T17:00:45Z</time>
      </trkpt>
      <trkpt lat="45.89344" lon="4.58832">
        <ele>246</ele>
        <time>2021-11-19T17:00:50Z</time>
      </trkpt>
      <trkpt lat="45.89303" lon="4.58783">
        <ele>253</ele>
        <time>2021-11-19T17:01:03Z</time>
      </trkpt>
      <trkpt lat="45.89293" lon="4.58774">
        <ele>255</ele>
        <time>2021-11-19T17:01:06Z</time>
      </trkpt>
      <trkpt lat="45.89284" lon="4.58772">
        <ele>257</ele>
        <time>2021-11-19T17:01:08Z</time>
      </trkpt>
      <trkpt lat="45.89273" lon="4.5875">
        <ele>260</ele>
        <time>2021-11-19T17:01:12Z</time>
      </trkpt>
      <trkpt lat="45.89267" lon="4.58745">
        <ele>260</ele>
        <time>2021-11-19T17:01:14Z</time>
      </trkpt>
      <trkpt lat="45.89259" lon="4.58747">
        <ele>262</ele>
        <time>2021-11-19T17:01:16Z</time>
      </trkpt>
      <trkpt lat="45.89241" lon="4.58762">
        <ele>265</ele>
        <time>2021-11-19T17:01:21Z</time>
      </trkpt>
      <trkpt lat="45.89222" lon="4.58774">
        <ele>267</ele>
        <time>2021-11-19T17:01:25Z</time>
      </trkpt>
      <trkpt lat="45.89197" lon="4.58772">
        <ele>270</ele>
        <time>2021-11-19T17:01:31Z</time>
      </trkpt>
      <trkpt lat="45.89151" lon="4.58744">
        <ele>277</ele>
        <time>2021-11-19T17:01:43Z</time>
      </trkpt>
      <trkpt lat="45.89132" lon="4.58727">
        <ele>278</ele>
        <time>2021-11-19T17:01:48Z</time>
      </trkpt>
      <trkpt lat="45.89097" lon="4.58703">
        <ele>280</ele>
        <time>2021-11-19T17:01:57Z</time>
      </trkpt>
      <trkpt lat="45.89059" lon="4.58685">
        <ele>282</ele>
        <time>2021-11-19T17:02:07Z</time>
      </trkpt>
      <trkpt lat="45.88937" lon="4.58619">
        <ele>283</ele>
        <time>2021-11-19T17:02:37Z</time>
      </trkpt>
      <trkpt lat="45.88899" lon="4.58602">
        <ele>284</ele>
        <time>2021-11-19T17:02:46Z</time>
      </trkpt>
      <trkpt lat="45.8887" lon="4.58585">
        <ele>285</ele>
        <time>2021-11-19T17:02:54Z</time>
      </trkpt>
      <trkpt lat="45.88784" lon="4.58559">
        <ele>286</ele>
        <time>2021-11-19T17:03:14Z</time>
      </trkpt>
      <trkpt lat="45.88726" lon="4.58538">
        <ele>287</ele>
        <time>2021-11-19T17:03:28Z</time>
      </trkpt>
      <trkpt lat="45.88721" lon="4.58537">
        <ele>287</ele>
        <time>2021-11-19T17:03:29Z</time>
      </trkpt>
      <trkpt lat="45.88717" lon="4.58542">
        <ele>287</ele>
        <time>2021-11-19T17:03:31Z</time>
      </trkpt>
      <trkpt lat="45.88693" lon="4.58614">
        <ele>286</ele>
        <time>2021-11-19T17:03:43Z</time>
      </trkpt>
      <trkpt lat="45.88679" lon="4.58625">
        <ele>287</ele>
        <time>2021-11-19T17:03:47Z</time>
      </trkpt>
      <trkpt lat="45.88616" lon="4.58661">
        <ele>288</ele>
        <time>2021-11-19T17:04:03Z</time>
      </trkpt>
      <trkpt lat="45.88534" lon="4.58628">
        <ele>296</ele>
        <time>2021-11-19T17:04:23Z</time>
      </trkpt>
      <trkpt lat="45.88525" lon="4.58577">
        <ele>300</ele>
        <time>2021-11-19T17:04:31Z</time>
      </trkpt>
      <trkpt lat="45.88495" lon="4.58566">
        <ele>305</ele>
        <time>2021-11-19T17:04:39Z</time>
      </trkpt>
      <trkpt lat="45.88476" lon="4.5854">
        <ele>309</ele>
        <time>2021-11-19T17:04:45Z</time>
      </trkpt>
      <trkpt lat="45.88442" lon="4.58511">
        <ele>315</ele>
        <time>2021-11-19T17:04:54Z</time>
      </trkpt>
      <trkpt lat="45.88422" lon="4.58499">
        <ele>317</ele>
        <time>2021-11-19T17:04:59Z</time>
      </trkpt>
      <trkpt lat="45.88401" lon="4.5847">
        <ele>321</ele>
        <time>2021-11-19T17:05:06Z</time>
      </trkpt>
      <trkpt lat="45.88381" lon="4.58462">
        <ele>325</ele>
        <time>2021-11-19T17:05:11Z</time>
      </trkpt>
      <trkpt lat="45.88338" lon="4.58437">
        <ele>335</ele>
        <time>2021-11-19T17:05:22Z</time>
      </trkpt>
      <trkpt lat="45.88309" lon="4.58427">
        <ele>338</ele>
        <time>2021-11-19T17:05:29Z</time>
      </trkpt>
      <trkpt lat="45.8827" lon="4.58407">
        <ele>341</ele>
        <time>2021-11-19T17:05:38Z</time>
      </trkpt>
      <trkpt lat="45.88247" lon="4.58404">
        <ele>342</ele>
        <time>2021-11-19T17:05:44Z</time>
      </trkpt>
      <trkpt lat="45.88216" lon="4.58406">
        <ele>345</ele>
        <time>2021-11-19T17:05:51Z</time>
      </trkpt>
      <trkpt lat="45.88173" lon="4.58419">
        <ele>350</ele>
        <time>2021-11-19T17:06:01Z</time>
      </trkpt>
      <trkpt lat="45.88156" lon="4.58416">
        <ele>352</ele>
        <time>2021-11-19T17:06:05Z</time>
      </trkpt>
      <trkpt lat="45.88075" lon="4.58378">
        <ele>363</ele>
        <time>2021-11-19T17:06:25Z</time>
      </trkpt>
      <trkpt lat="45.8797" lon="4.58336">
        <ele>375</ele>
        <time>2021-11-19T17:06:51Z</time>
      </trkpt>
      <trkpt lat="45.87933" lon="4.58315">
        <ele>379</ele>
        <time>2021-11-19T17:07:00Z</time>
      </trkpt>
      <trkpt lat="45.87894" lon="4.58311">
        <ele>381</ele>
        <time>2021-11-19T17:07:09Z</time>
      </trkpt>
      <trkpt lat="45.87856" lon="4.58315">
        <ele>382</ele>
        <time>2021-11-19T17:07:18Z</time>
      </trkpt>
      <trkpt lat="45.87823" lon="4.58322">
        <ele>383</ele>
        <time>2021-11-19T17:07:26Z</time>
      </trkpt>
      <trkpt lat="45.87803" lon="4.58316">
        <ele>384</ele>
        <time>2021-11-19T17:07:30Z</time>
      </trkpt>
      <trkpt lat="45.87754" lon="4.58284">
        <ele>383</ele>
        <time>2021-11-19T17:07:43Z</time>
      </trkpt>
      <trkpt lat="45.87675" lon="4.58244">
        <ele>387</ele>
        <time>2021-11-19T17:08:03Z</time>
      </trkpt>
      <trkpt lat="45.87635" lon="4.58213">
        <ele>390</ele>
        <time>2021-11-19T17:08:13Z</time>
      </trkpt>
      <trkpt lat="45.87597" lon="4.58208">
        <ele>395</ele>
        <time>2021-11-19T17:08:22Z</time>
      </trkpt>
      <trkpt lat="45.87559" lon="4.58199">
        <ele>399</ele>
        <time>2021-11-19T17:08:31Z</time>
      </trkpt>
      <trkpt lat="45.87523" lon="4.58185">
        <ele>402</ele>
        <time>2021-11-19T17:08:40Z</time>
      </trkpt>
      <trkpt lat="45.87496" lon="4.58158">
        <ele>403</ele>
        <time>2021-11-19T17:08:47Z</time>
      </trkpt>
      <trkpt lat="45.87448" lon="4.58118">
        <ele>405</ele>
        <time>2021-11-19T17:09:00Z</time>
      </trkpt>
      <trkpt lat="45.87363" lon="4.58069">
        <ele>405</ele>
        <time>2021-11-19T17:09:22Z</time>
      </trkpt>
      <trkpt lat="45.87319" lon="4.58047">
        <ele>404</ele>
        <time>2021-11-19T17:09:33Z</time>
      </trkpt>
      <trkpt lat="45.8724" lon="4.58015">
        <ele>404</ele>
        <time>2021-11-19T17:09:52Z</time>
      </trkpt>
      <trkpt lat="45.87179" lon="4.58003">
        <ele>403</ele>
        <time>2021-11-19T17:10:06Z</time>
      </trkpt>
      <trkpt lat="45.87154" lon="4.57974">
        <ele>400</ele>
        <time>2021-11-19T17:10:14Z</time>
      </trkpt>
      <trkpt lat="45.87065" lon="4.57923">
        <ele>394</ele>
        <time>2021-11-19T17:10:36Z</time>
      </trkpt>
      <trkpt lat="45.8703" lon="4.57917">
        <ele>392</ele>
        <time>2021-11-19T17:10:44Z</time>
      </trkpt>
      <trkpt lat="45.86942" lon="4.57813">
        <ele>376</ele>
        <time>2021-11-19T17:11:11Z</time>
      </trkpt>
      <trkpt lat="45.86937" lon="4.578">
        <ele>375</ele>
        <time>2021-11-19T17:11:13Z</time>
      </trkpt>
      <trkpt lat="45.86838" lon="4.57822">
        <ele>372</ele>
        <time>2021-11-19T17:11:37Z</time>
      </trkpt>
      <trkpt lat="45.86801" lon="4.57818">
        <ele>371</ele>
        <time>2021-11-19T17:11:45Z</time>
      </trkpt>
      <trkpt lat="45.86724" lon="4.57799">
        <ele>368</ele>
        <time>2021-11-19T17:12:04Z</time>
      </trkpt>
      <trkpt lat="45.86719" lon="4.5779">
        <ele>368</ele>
        <time>2021-11-19T17:12:06Z</time>
      </trkpt>
      <trkpt lat="45.86708" lon="4.57738">
        <ele>368</ele>
        <time>2021-11-19T17:12:14Z</time>
      </trkpt>
      <trkpt lat="45.86706" lon="4.57732">
        <ele>368</ele>
        <time>2021-11-19T17:12:15Z</time>
      </trkpt>
      <trkpt lat="45.86702" lon="4.57731">
        <ele>368</ele>
        <time>2021-11-19T17:12:16Z</time>
      </trkpt>
      <trkpt lat="45.86693" lon="4.57733">
        <ele>368</ele>
        <time>2021-11-19T17:12:19Z</time>
      </trkpt>
      <trkpt lat="45.86653" lon="4.5773">
        <ele>369</ele>
        <time>2021-11-19T17:12:28Z</time>
      </trkpt>
      <trkpt lat="45.86566" lon="4.57717">
        <ele>370</ele>
        <time>2021-11-19T17:12:48Z</time>
      </trkpt>
      <trkpt lat="45.86485" lon="4.57737">
        <ele>370</ele>
        <time>2021-11-19T17:13:08Z</time>
      </trkpt>
      <trkpt lat="45.86427" lon="4.57732">
        <ele>372</ele>
        <time>2021-11-19T17:13:21Z</time>
      </trkpt>
      <trkpt lat="45.86399" lon="4.57724">
        <ele>372</ele>
        <time>2021-11-19T17:13:28Z</time>
      </trkpt>
      <trkpt lat="45.86393" lon="4.5772">
        <ele>372</ele>
        <time>2021-11-19T17:13:29Z</time>
      </trkpt>
      <trkpt lat="45.86273" lon="4.57551">
        <ele>372</ele>
        <time>2021-11-19T17:14:09Z</time>
      </trkpt>
      <trkpt lat="45.86205" lon="4.57436">
        <ele>372</ele>
        <time>2021-11-19T17:14:33Z</time>
      </trkpt>
      <trkpt lat="45.86199" lon="4.57431">
        <ele>372</ele>
        <time>2021-11-19T17:14:35Z</time>
      </trkpt>
      <trkpt lat="45.86148" lon="4.57508">
        <ele>370</ele>
        <time>2021-11-19T17:14:52Z</time>
      </trkpt>
      <trkpt lat="45.86129" lon="4.57551">
        <ele>368</ele>
        <time>2021-11-19T17:15:00Z</time>
      </trkpt>
      <trkpt lat="45.86057" lon="4.57674">
        <ele>364</ele>
        <time>2021-11-19T17:15:26Z</time>
      </trkpt>
      <trkpt lat="45.86007" lon="4.57803">
        <ele>361</ele>
        <time>2021-11-19T17:15:50Z</time>
      </trkpt>
      <trkpt lat="45.85986" lon="4.57833">
        <ele>360</ele>
        <time>2021-11-19T17:15:57Z</time>
      </trkpt>
      <trkpt lat="45.85986" lon="4.57843">
        <ele>360</ele>
        <time>2021-11-19T17:15:59Z</time>
      </trkpt>
      <trkpt lat="45.85993" lon="4.57878">
        <ele>360</ele>
        <time>2021-11-19T17:16:05Z</time>
      </trkpt>
      <trkpt lat="45.86009" lon="4.58041">
        <ele>358</ele>
        <time>2021-11-19T17:16:32Z</time>
      </trkpt>
      <trkpt lat="45.86015" lon="4.58123">
        <ele>355</ele>
        <time>2021-11-19T17:16:45Z</time>
      </trkpt>
      <trkpt lat="45.86018" lon="4.5823">
        <ele>352</ele>
        <time>2021-11-19T17:17:02Z</time>
      </trkpt>
      <trkpt lat="45.86012" lon="4.58475">
        <ele>347</ele>
        <time>2021-11-19T17:17:42Z</time>
      </trkpt>
      <trkpt lat="45.86017" lon="4.58629">
        <ele>339</ele>
        <time>2021-11-19T17:18:07Z</time>
      </trkpt>
      <trkpt lat="45.86016" lon="4.58656">
        <ele>337</ele>
        <time>2021-11-19T17:18:12Z</time>
      </trkpt>
      <trkpt lat="45.86013" lon="4.58676">
        <ele>336</ele>
        <time>2021-11-19T17:18:15Z</time>
      </trkpt>
      <trkpt lat="45.8601" lon="4.58745">
        <ele>336</ele>
        <time>2021-11-19T17:18:26Z</time>
      </trkpt>
      <trkpt lat="45.85994" lon="4.58833">
        <ele>332</ele>
        <time>2021-11-19T17:18:41Z</time>
      </trkpt>
      <trkpt lat="45.85996" lon="4.58897">
        <ele>331</ele>
        <time>2021-11-19T17:18:52Z</time>
      </trkpt>
      <trkpt lat="45.85994" lon="4.58945">
        <ele>331</ele>
        <time>2021-11-19T17:18:59Z</time>
      </trkpt>
      <trkpt lat="45.85986" lon="4.58993">
        <ele>330</ele>
        <time>2021-11-19T17:19:07Z</time>
      </trkpt>
      <trkpt lat="45.85972" lon="4.59011">
        <ele>330</ele>
        <time>2021-11-19T17:19:12Z</time>
      </trkpt>
      <trkpt lat="45.85961" lon="4.59018">
        <ele>331</ele>
        <time>2021-11-19T17:19:15Z</time>
      </trkpt>
      <trkpt lat="45.85937" lon="4.59044">
        <ele>330</ele>
        <time>2021-11-19T17:19:22Z</time>
      </trkpt>
      <trkpt lat="45.85899" lon="4.59119">
        <ele>329</ele>
        <time>2021-11-19T17:19:37Z</time>
      </trkpt>
      <trkpt lat="45.8582" lon="4.59249">
        <ele>321</ele>
        <time>2021-11-19T17:20:05Z</time>
      </trkpt>
      <trkpt lat="45.85789" lon="4.59263">
        <ele>316</ele>
        <time>2021-11-19T17:20:12Z</time>
      </trkpt>
      <trkpt lat="45.85755" lon="4.59274">
        <ele>312</ele>
        <time>2021-11-19T17:20:21Z</time>
      </trkpt>
      <trkpt lat="45.85692" lon="4.59279">
        <ele>302</ele>
        <time>2021-11-19T17:20:35Z</time>
      </trkpt>
      <trkpt lat="45.85668" lon="4.5931">
        <ele>296</ele>
        <time>2021-11-19T17:20:43Z</time>
      </trkpt>
      <trkpt lat="45.85658" lon="4.59312">
        <ele>295</ele>
        <time>2021-11-19T17:20:45Z</time>
      </trkpt>
      <trkpt lat="45.85624" lon="4.5931">
        <ele>293</ele>
        <time>2021-11-19T17:20:53Z</time>
      </trkpt>
      <trkpt lat="45.85592" lon="4.59321">
        <ele>290</ele>
        <time>2021-11-19T17:21:01Z</time>
      </trkpt>
      <trkpt lat="45.85587" lon="4.59327">
        <ele>289</ele>
        <time>2021-11-19T17:21:02Z</time>
      </trkpt>
      <trkpt lat="45.85558" lon="4.59401">
        <ele>283</ele>
        <time>2021-11-19T17:21:16Z</time>
      </trkpt>
      <trkpt lat="45.85542" lon="4.59449">
        <ele>284</ele>
        <time>2021-11-19T17:21:25Z</time>
      </trkpt>
      <trkpt lat="45.85527" lon="4.59456">
        <ele>283</ele>
        <time>2021-11-19T17:21:28Z</time>
      </trkpt>
      <trkpt lat="45.85496" lon="4.59464">
        <ele>283</ele>
        <time>2021-11-19T17:21:36Z</time>
      </trkpt>
      <trkpt lat="45.85491" lon="4.59596">
        <ele>287</ele>
        <time>2021-11-19T17:21:57Z</time>
      </trkpt>
      <trkpt lat="45.85483" lon="4.59587">
        <ele>286</ele>
        <time>2021-11-19T17:22:00Z</time>
      </trkpt>
      <trkpt lat="45.85444" lon="4.59571">
        <ele>286</ele>
        <time>2021-11-19T17:22:09Z</time>
      </trkpt>
      <trkpt lat="45.85369" lon="4.59507">
        <ele>284</ele>
        <time>2021-11-19T17:22:30Z</time>
      </trkpt>
      <trkpt lat="45.85331" lon="4.59481">
        <ele>281</ele>
        <time>2021-11-19T17:22:39Z</time>
      </trkpt>
      <trkpt lat="45.85271" lon="4.59484">
        <ele>280</ele>
        <time>2021-11-19T17:22:53Z</time>
      </trkpt>
      <trkpt lat="45.85183" lon="4.5943">
        <ele>275</ele>
        <time>2021-11-19T17:23:16Z</time>
      </trkpt>
      <trkpt lat="45.85161" lon="4.59422">
        <ele>274</ele>
        <time>2021-11-19T17:23:21Z</time>
      </trkpt>
      <trkpt lat="45.85143" lon="4.5941">
        <ele>273</ele>
        <time>2021-11-19T17:23:26Z</time>
      </trkpt>
      <trkpt lat="45.85165" lon="4.59326">
        <ele>272</ele>
        <time>2021-11-19T17:23:40Z</time>
      </trkpt>
      <trkpt lat="45.85173" lon="4.59312">
        <ele>272</ele>
        <time>2021-11-19T17:23:43Z</time>
      </trkpt>
      <trkpt lat="45.85202" lon="4.59274">
        <ele>274</ele>
        <time>2021-11-19T17:23:52Z</time>
      </trkpt>
      <trkpt lat="45.85212" lon="4.59269">
        <ele>274</ele>
        <time>2021-11-19T17:23:55Z</time>
      </trkpt>
      <trkpt lat="45.85293" lon="4.59162">
        <ele>285</ele>
        <time>2021-11-19T17:24:21Z</time>
      </trkpt>
      <trkpt lat="45.85332" lon="4.5911">
        <ele>291</ele>
        <time>2021-11-19T17:24:33Z</time>
      </trkpt>
      <trkpt lat="45.85367" lon="4.59055">
        <ele>294</ele>
        <time>2021-11-19T17:24:45Z</time>
      </trkpt>
      <trkpt lat="45.85382" lon="4.59008">
        <ele>296</ele>
        <time>2021-11-19T17:24:54Z</time>
      </trkpt>
      <trkpt lat="45.85405" lon="4.58968">
        <ele>299</ele>
        <time>2021-11-19T17:25:02Z</time>
      </trkpt>
      <trkpt lat="45.85439" lon="4.58801">
        <ele>321</ele>
        <time>2021-11-19T17:25:30Z</time>
      </trkpt>
      <trkpt lat="45.85434" lon="4.58762">
        <ele>328</ele>
        <time>2021-11-19T17:25:37Z</time>
      </trkpt>
      <trkpt lat="45.85429" lon="4.58742">
        <ele>331</ele>
        <time>2021-11-19T17:25:40Z</time>
      </trkpt>
      <trkpt lat="45.85402" lon="4.58692">
        <ele>335</ele>
        <time>2021-11-19T17:25:50Z</time>
      </trkpt>
      <trkpt lat="45.85364" lon="4.58633">
        <ele>337</ele>
        <time>2021-11-19T17:26:04Z</time>
      </trkpt>
      <trkpt lat="45.85346" lon="4.58592">
        <ele>340</ele>
        <time>2021-11-19T17:26:11Z</time>
      </trkpt>
      <trkpt lat="45.85329" lon="4.5853">
        <ele>342</ele>
        <time>2021-11-19T17:26:22Z</time>
      </trkpt>
      <trkpt lat="45.85315" lon="4.58496">
        <ele>343</ele>
        <time>2021-11-19T17:26:29Z</time>
      </trkpt>
      <trkpt lat="45.85287" lon="4.58434">
        <ele>344</ele>
        <time>2021-11-19T17:26:41Z</time>
      </trkpt>
      <trkpt lat="45.85268" lon="4.58406">
        <ele>344</ele>
        <time>2021-11-19T17:26:47Z</time>
      </trkpt>
      <trkpt lat="45.85265" lon="4.58384">
        <ele>344</ele>
        <time>2021-11-19T17:26:51Z</time>
      </trkpt>
      <trkpt lat="45.85262" lon="4.58316">
        <ele>345</ele>
        <time>2021-11-19T17:27:02Z</time>
      </trkpt>
      <trkpt lat="45.85246" lon="4.58303">
        <ele>344</ele>
        <time>2021-11-19T17:27:06Z</time>
      </trkpt>
      <trkpt lat="45.85269" lon="4.58182">
        <ele>346</ele>
        <time>2021-11-19T17:27:26Z</time>
      </trkpt>
      <trkpt lat="45.85177" lon="4.58161">
        <ele>336</ele>
        <time>2021-11-19T17:27:48Z</time>
      </trkpt>
      <trkpt lat="45.8515" lon="4.58152">
        <ele>335</ele>
        <time>2021-11-19T17:27:55Z</time>
      </trkpt>
      <trkpt lat="45.85115" lon="4.58151">
        <ele>333</ele>
        <time>2021-11-19T17:28:03Z</time>
      </trkpt>
      <trkpt lat="45.85096" lon="4.58153">
        <ele>333</ele>
        <time>2021-11-19T17:28:07Z</time>
      </trkpt>
      <trkpt lat="45.85069" lon="4.58161">
        <ele>332</ele>
        <time>2021-11-19T17:28:14Z</time>
      </trkpt>
      <trkpt lat="45.85035" lon="4.58173">
        <ele>330</ele>
        <time>2021-11-19T17:28:22Z</time>
      </trkpt>
      <trkpt lat="45.85004" lon="4.58189">
        <ele>329</ele>
        <time>2021-11-19T17:28:30Z</time>
      </trkpt>
      <trkpt lat="45.84997" lon="4.58202">
        <ele>329</ele>
        <time>2021-11-19T17:28:32Z</time>
      </trkpt>
      <trkpt lat="45.84995" lon="4.58214">
        <ele>329</ele>
        <time>2021-11-19T17:28:34Z</time>
      </trkpt>
      <trkpt lat="45.8501" lon="4.58238">
        <ele>330</ele>
        <time>2021-11-19T17:28:40Z</time>
      </trkpt>
      <trkpt lat="45.84991" lon="4.58271">
        <ele>327</ele>
        <time>2021-11-19T17:28:47Z</time>
      </trkpt>
      <trkpt lat="45.84974" lon="4.58341">
        <ele>320</ele>
        <time>2021-11-19T17:28:59Z</time>
      </trkpt>
      <trkpt lat="45.84968" lon="4.58357">
        <ele>317</ele>
        <time>2021-11-19T17:29:02Z</time>
      </trkpt>
      <trkpt lat="45.84959" lon="4.5837">
        <ele>315</ele>
        <time>2021-11-19T17:29:05Z</time>
      </trkpt>
      <trkpt lat="45.84918" lon="4.58385">
        <ele>311</ele>
        <time>2021-11-19T17:29:14Z</time>
      </trkpt>
      <trkpt lat="45.84908" lon="4.58391">
        <ele>309</ele>
        <time>2021-11-19T17:29:17Z</time>
      </trkpt>
      <trkpt lat="45.84873" lon="4.58466">
        <ele>297</ele>
        <time>2021-11-19T17:29:32Z</time>
      </trkpt>
      <trkpt lat="45.84861" lon="4.5848">
        <ele>294</ele>
        <time>2021-11-19T17:29:35Z</time>
      </trkpt>
      <trkpt lat="45.84825" lon="4.58511">
        <ele>288</ele>
        <time>2021-11-19T17:29:45Z</time>
      </trkpt>
      <trkpt lat="45.848" lon="4.58548">
        <ele>283</ele>
        <time>2021-11-19T17:29:53Z</time>
      </trkpt>
      <trkpt lat="45.84762" lon="4.58591">
        <ele>277</ele>
        <time>2021-11-19T17:30:05Z</time>
      </trkpt>
      <trkpt lat="45.84716" lon="4.58629">
        <ele>275</ele>
        <time>2021-11-19T17:30:17Z</time>
      </trkpt>
      <trkpt lat="45.8469" lon="4.58657">
        <ele>273</ele>
        <time>2021-11-19T17:30:25Z</time>
      </trkpt>
      <trkpt lat="45.84616" lon="4.58777">
        <ele>264</ele>
        <time>2021-11-19T17:30:51Z</time>
      </trkpt>
      <trkpt lat="45.84603" lon="4.58764">
        <ele>264</ele>
        <time>2021-11-19T17:30:54Z</time>
      </trkpt>
      <trkpt lat="45.84584" lon="4.58726">
        <ele>265</ele>
        <time>2021-11-19T17:31:02Z</time>
      </trkpt>
      <trkpt lat="45.84569" lon="4.58723">
        <ele>265</ele>
        <time>2021-11-19T17:31:06Z</time>
      </trkpt>
      <trkpt lat="45.8446" lon="4.58758">
        <ele>260</ele>
        <time>2021-11-19T17:31:32Z</time>
      </trkpt>
      <trkpt lat="45.84411" lon="4.58656">
        <ele>255</ele>
        <time>2021-11-19T17:31:52Z</time>
      </trkpt>
      <trkpt lat="45.84384" lon="4.58609">
        <ele>253</ele>
        <time>2021-11-19T17:32:02Z</time>
      </trkpt>
      <trkpt lat="45.84368" lon="4.58601">
        <ele>251</ele>
        <time>2021-11-19T17:32:06Z</time>
      </trkpt>
      <trkpt lat="45.84349" lon="4.58602">
        <ele>248</ele>
        <time>2021-11-19T17:32:10Z</time>
      </trkpt>
      <trkpt lat="45.84332" lon="4.5861">
        <ele>246</ele>
        <time>2021-11-19T17:32:14Z</time>
      </trkpt>
      <trkpt lat="45.8432" lon="4.58632">
        <ele>244</ele>
        <time>2021-11-19T17:32:19Z</time>
      </trkpt>
      <trkpt lat="45.84305" lon="4.58596">
        <ele>244</ele>
        <time>2021-11-19T17:32:26Z</time>
      </trkpt>
      <trkpt lat="45.8429" lon="4.58576">
        <ele>243</ele>
        <time>2021-11-19T17:32:30Z</time>
      </trkpt>
      <trkpt lat="45.84192" lon="4.58597">
        <ele>238</ele>
        <time>2021-11-19T17:32:54Z</time>
      </trkpt>
      <trkpt lat="45.84165" lon="4.58612">
        <ele>238</ele>
        <time>2021-11-19T17:33:00Z</time>
      </trkpt>
      <trkpt lat="45.84148" lon="4.58599">
        <ele>239</ele>
        <time>2021-11-19T17:33:05Z</time>
      </trkpt>
      <trkpt lat="45.84099" lon="4.58611">
        <ele>242</ele>
        <time>2021-11-19T17:33:17Z</time>
      </trkpt>
      <trkpt lat="45.84064" lon="4.58649">
        <ele>246</ele>
        <time>2021-11-19T17:33:27Z</time>
      </trkpt>
      <trkpt lat="45.84037" lon="4.58664">
        <ele>252</ele>
        <time>2021-11-19T17:33:34Z</time>
      </trkpt>
      <trkpt lat="45.83979" lon="4.58652">
        <ele>260</ele>
        <time>2021-11-19T17:33:47Z</time>
      </trkpt>
      <trkpt lat="45.83952" lon="4.58642">
        <ele>260</ele>
        <time>2021-11-19T17:33:54Z</time>
      </trkpt>
      <trkpt lat="45.83906" lon="4.58614">
        <ele>261</ele>
        <time>2021-11-19T17:34:05Z</time>
      </trkpt>
      <trkpt lat="45.83866" lon="4.58577">
        <ele>265</ele>
        <time>2021-11-19T17:34:16Z</time>
      </trkpt>
      <trkpt lat="45.83822" lon="4.58553">
        <ele>269</ele>
        <time>2021-11-19T17:34:27Z</time>
      </trkpt>
      <trkpt lat="45.83776" lon="4.58552">
        <ele>273</ele>
        <time>2021-11-19T17:34:38Z</time>
      </trkpt>
      <trkpt lat="45.83781" lon="4.58599">
        <ele>277</ele>
        <time>2021-11-19T17:34:46Z</time>
      </trkpt>
      <trkpt lat="45.83778" lon="4.58696">
        <ele>281</ele>
        <time>2021-11-19T17:35:02Z</time>
      </trkpt>
      <trkpt lat="45.83778" lon="4.5876">
        <ele>282</ele>
        <time>2021-11-19T17:35:12Z</time>
      </trkpt>
      <trkpt lat="45.83781" lon="4.58819">
        <ele>283</ele>
        <time>2021-11-19T17:35:22Z</time>
      </trkpt>
      <trkpt lat="45.8374" lon="4.58821">
        <ele>285</ele>
        <time>2021-11-19T17:35:31Z</time>
      </trkpt>
      <trkpt lat="45.8372" lon="4.58825">
        <ele>287</ele>
        <time>2021-11-19T17:35:36Z</time>
      </trkpt>
      <trkpt lat="45.83698" lon="4.58824">
        <ele>288</ele>
        <time>2021-11-19T17:35:41Z</time>
      </trkpt>
      <trkpt lat="45.8367" lon="4.58814">
        <ele>289</ele>
        <time>2021-11-19T17:35:48Z</time>
      </trkpt>
      <trkpt lat="45.83598" lon="4.58818">
        <ele>292</ele>
        <time>2021-11-19T17:36:05Z</time>
      </trkpt>
      <trkpt lat="45.83562" lon="4.58808">
        <ele>294</ele>
        <time>2021-11-19T17:36:13Z</time>
      </trkpt>
      <trkpt lat="45.8353" lon="4.58805">
        <ele>296</ele>
        <time>2021-11-19T17:36:21Z</time>
      </trkpt>
      <trkpt lat="45.83497" lon="4.58798">
        <ele>297</ele>
        <time>2021-11-19T17:36:29Z</time>
      </trkpt>
      <trkpt lat="45.83495" lon="4.58816">
        <ele>298</ele>
        <time>2021-11-19T17:36:32Z</time>
      </trkpt>
    </trkseg>
  </trk>
</gpx>